10 Km et Semi de Blagnac - 10/03/2013

21,1 Km


Pl Do. Nom - Surname Prénom - Name S-Cat /cat Club - Team TEMPS - Time Km/h /sx
1 7 INDONGO RUBEN MSE 1 ATHLETISME GRAULHET 01:05:22 19,4 1
2 2 BOULAHDID RACHID MSE 2 ACP AGDE 01:05:30 19,3 2
3 1 PELISSIER CEDRIC MSE 3 BSC ATHLE 01:05:55 19,2 3
4 668 KERLOCH YANNICK MSE 4 TEAM ERRERA 01:08:41 18,4 4
5 3 LASFAR ABDELKADER MSE 5 NL 01:09:42 18,2 5
6 5 BELLANCA JEROME MSE 6 BSC ATHLE 01:10:08 18,1 6
7 472 GAYRARD DAMIEN MSE 7 SATUC 01:13:02 17,3 7
8 49 BARRAL ADRIEN MES 1 ASPTT NANCY 01:13:19 17,3 8
9 2888 TOUZARD ALEXANDRE MSE 8 LIMOUX TRI 01:13:34 17,2 9
10 685 DE MARCOS ANTHONY MSE 9 ELAN USSEL 01:14:17 17,0 10
11 523 BOURGEOIS ALEXANDRE MSE 10 TOS ATHLE 01:14:48 16,9 11
12 597 TANGUY ERIC MV1 1 TEAM 12 01:14:50 16,9 12
13 794 MANCHADO ALAN MSE 11 AMICS ATLETISME ANDORRA 01:14:55 16,9 13
14 47 MIGUEL NICOLAS MSE 12 RUNNING 01:15:24 16,8 14
15 260 SPENNATO RICHARD MV1 2 NL 01:15:54 16,7 15
16 518 GALPIN THOMAS MSE 13   01:16:57 16,5 16
17 749 GROSSET MARC MSE 14   01:17:05 16,4 17
18 939 HIJAZI SAMIR MSE 15 TEAM RAIDLIGHT 01:17:22 16,4 18
19 752 KEBAILI HOUSNI MV1 3   01:17:48 16,3 19
20 2876 BRUEL PATRICE MV1 4 SA CONDOM 01:18:08 16,2 20
21 117 BOMPARD NICOLAS MSE 16 S/L STADE CLERMONTOIS 01:18:19 16,2 21
22 118 BIZET IVAN MSE 17 NL 01:18:19 16,2 22
23 502 LEGRIEL SEBASTIEN MSE 18 NL 01:19:33 15,9 23
24 8 NIYONIZIGIYE FRANCINE FSE 1 AS RISPOLI 01:20:14 15,8 1
25 1173 MORIN PHILIPPE MV1 5 ATHLE 632 01:20:14 15,8 24
26 465 CHIROSSEL VINCENT MSE 19   01:20:24 15,7 25
27 893 RAMI NICOLAS MV1 6 Aigles de Pau 01:20:38 15,7 26
28 926 ALAYRAC JEROME MSE 20 NL 01:20:49 15,7 27
29 1021 BARRUCQ CHRISTOPHE MSE 21   01:20:50 15,7 28
30 483 BARRUCQ FLORENT MSE 22 NL 01:20:51 15,7 29
31 739 DENAUX LAURENT MV1 7 NL 01:20:53 15,6 30
32 245 DELMAS VINCENT MSE 23 AS L'UNION TRIATHLON 01:20:55 15,6 31
33 135 FRANCOIS CHRISTOPHE MV1 8 ECLA ALBI* 01:21:12 15,6 32
34 14 FRECHOU HOURIA FV2 1 ATHLE 632 01:21:16 15,6 2
35 785 LENFANT CHRISTOPHE MSE 24 PORTET TRIATHLON 01:21:40 15,5 33
36 923 MOUGNIBAS JEAN-CLAUDE MSE 25 TOULOUSE TRI 01:22:00 15,4 34
37 366 ESCACH FREDERIC MSE 26 NL 01:22:14 15,4 35
38 678 JMEL SAID MV2 1 ATHLE 632 01:22:24 15,4 36
39 516 JAMIN LUDOVIC MSE 27 NL 01:22:36 15,3 37
40 693 NAFI KHALID MSE 28 NL 01:22:37 15,3 38
41 329 MICHEL RENAUD MV1 9 PORTET ATHLETIC CLUB 01:22:40 15,3 39
42 10 MURUTHI ESTHER FSE 2 CA BALMA 01:22:45 15,3 3
43 2741 CASSAYRE SEBASTIEN MSE 29 NL 01:22:54 15,3 40
44 741 DUBARRY JEAN PIERRE MV1 10   01:22:55 15,3 41
45 417 SAGNET CHRISTIAN MV1 11 CLERMONT SPORT ENDURANCE 01:23:00 15,3 42
46 444 BARRAL SYLVAIN MSE 30 NL 01:23:07 15,2 43
47 727 MILHEAU LAURENT MV1 12 NL 01:23:12 15,2 44
48 443 MONJARRET JULIEN MSE 31 NL 01:23:20 15,2 45
49 590 GULION CHRISTOPHE MSE 32 NL 01:23:21 15,2 46
50 446 LUBOZ THOMAS MSE 33 NL 01:23:35 15,1 47
51 820 PETRISSANS THOMAS MV1 13 TOULOUSE TRI 01:23:38 15,1 48
52 536 KIM SAMUEL MV1 14 ASPF 01:23:40 15,1 49
53 453 LASPLACE ADRIEN MSE 34   01:23:49 15,1 50
54 3191 DO RIO GOMES DELIO MSE 35 AC LIMOUX 01:23:54 15,1 51
55 933 GROS PHILIPPE MSE 36 NL 01:24:26 15,0 52
56 1046 DELLA VIA ARTHUR MSE 37   01:24:26 15,0 53
57 400 OLALLA DIONISIO MV1 15   01:24:26 15,0 54
58 503 MARTEAU CLÉMENT MSE 38 NL 01:24:28 15,0 55
59 2742 CIDDA ENNIO MV2 2 NL 01:24:29 15,0 56
60 1112 SAIZE PHILIPPE MV1 16 NL 01:24:34 15,0 57
61 1065 CAMPRUBI DIDIER MV2 3 NL 01:24:36 15,0 58
62 990 LABAN YOHAN MES 2 NL 01:24:37 15,0 59
63 451 VIGNAUD FRANCK MV1 17   01:24:37 15,0 60
64 742 DUDON MARC MV1 18   01:24:42 14,9 61
65 147 ROUICHI FRANCOIS MV1 19 ES AUSSILLON 01:24:46 14,9 62
66 679 GUARDIA VINCENT MSE 39 TOULOUSE TRI 01:24:47 14,9 63
67 616 DOSSAT GUILLAUME MSE 40 ALBI TRIATHLON 01:24:51 14,9 64
68 594 GAY DIDIER MSE 41 NL 01:25:21 14,8 65
69 115 AGOSTINI CHRISTOPHE ANGE MSE 42 NL 01:25:34 14,8 66
70 12 CLIGNET MARION FV1 1 ATHLE 632 01:25:40 14,8 4
71 368 DESBARATS LAURENT MSE 43 MOTOROLA COURSE A PIED 01:25:43 14,8 67
72 487 PATY JONATHAN MSE 44 NL 01:25:45 14,8 68
73 718 MESSINES LAURENT MSE 45 NL 01:25:50 14,7 69
74 790 DE SAINT JEAN BASTIEN MSE 46 NL 01:26:02 14,7 70
75 870 CHUST JEAN-CHRISTOPHE MSE 47 PORTET ATHLETIC CLUB 01:26:03 14,7 71
76 300 ANDREANI LUC MV1 20   01:26:11 14,7 72
77 720 BUCHOT JEAN-MARIE MSE 48 NL 01:26:39 14,6 73
78 1120 ZENATI ZACCHARIA MSE 49   01:26:44 14,6 74
79 711 MOREAU RÉMI MV1 21 NL 01:26:45 14,6 75
80 787 BELHOMME ERICK MV2 4 c a brive team mlk 01:26:47 14,6 76
81 826 DUPONT RICHARD MSE 50 NL 01:26:50 14,6 77
82 336 DEJEAN THIERRY MSE 51 NL 01:26:57 14,6 78
83 51 MACÉ MARC MSE 52 NL 01:26:59 14,6 79
84 3189 MARION PHILIPPE MV2 5   01:27:02 14,5 80
85 1116 DUBORD JEAN YVES MV1 22   01:27:08 14,5 81
86 719 OLIVA PHILIPPE MSE 53 OCCITAN TRIATH'LONG 01:27:12 14,5 82
87 2710 HOUTA HOUTA MOHAMED MSE 54 JOGGING CLUB BORDEROUGE 01:27:13 14,5 83
88 791 DEVEZE DANIEL MV1 23 NL 01:27:15 14,5 84
89 158 TOURNIER MATHIEU MSE 55 CA BALMA 01:27:16 14,5 85
90 618 JACQUOT ERWAN MSE 56 NL 01:27:19 14,5 86
91 667 PODDEVIN NICOLAS MV1 24 NL 01:27:31 14,5 87
92 887 SOUIAH MOHEMED MSE 57 JOGGING CLUB BORDEROUGE 01:27:34 14,5 88
93 356 TONNAIRE HERVE MV1 25 MARC 01:27:35 14,5 89
94 470 GACOIN FLORIAN MSE 58   01:27:37 14,4 90
95 223 ROBINO BENOIT MSE 59 NL 01:27:37 14,4 91
96 266 RODRIGUEZ PATRICE MV1 26 PORTET ATHLETIC CLUB 01:27:39 14,4 92
97 302 VANDEWALLE NICOLAS MSE 60 ALBI TRIATHLON 01:27:49 14,4 93
98 290 BORD PATRICK MSE 61 NL 01:27:52 14,4 94
99 104 GRANIÉ SÉBASTIEN MV1 27 RODEZ TRI 12 01:28:01 14,4 95
100 688 ACLOQUE HERVÉ MSE 62 SATUC 01:28:13 14,3 96
101 430 MOUNIER FABRICE MV1 28 NL 01:28:19 14,3 97
102 185 CASSAGNES JEAN LUC MV1 29 NL 01:28:21 14,3 98
103 623 BEAU ALEXANDRE MV1 30 NL 01:28:22 14,3 99
104 1018 DEGOIS CORINNE FV1 2   01:28:27 14,3 5
105 1017 DUREAU GAEL MV2 6   01:28:27 14,3 100
106 493 SCHIAVON JEAN VERAN MSE 63 NL 01:28:30 14,3 101
107 13 MONTGOMERY PAULA FV1 3 ATHLE 632 01:28:34 14,3 6
108 994 DANOVARO ERIC MV2 7 SATUC 01:28:35 14,3 102
109 257 SOLIER ARNAUD MV1 31   01:28:37 14,3 103
110 922 ARNAL-BREZUN DIDIER MV2 8 CA BALMA 01:28:41 14,3 104
111 52 MAITENAZ STEPHANE MV1 32 COURIR EN PAYS DE GRASSE 01:28:43 14,3 105
112 455 CARTIER-LANGE BRICE MSE 64   01:28:45 14,3 106
113 929 LLUNELL SEBASTIEN MSE 65 IDELIS 01:28:47 14,3 107
114 971 PAYEN NICOLAS MSE 66 NL 01:28:54 14,2 108
115 352 LEGENT JEREMY MSE 67 NL 01:28:55 14,2 109
116 2729 NIQUET JEAN MSE 68 NL 01:29:02 14,2 110
117 379 PAILLASSE MICHAEL MSE 69 NL 01:29:02 14,2 111
118 2830 TIDJEM DANY FSE 3 NL 01:29:03 14,2 7
119 892 BRAVO SANCHEZ MSE 70 NL 01:29:07 14,2 112
120 1154 ENGELUIN PIERRE MV2 9 NL 01:29:08 14,2 113
121 145 PELISSIER DAVID MSE 71 ATHLE LAURAGUAIS OLYMPIQUE 01:29:11 14,2 114
122 863 CIERCOLES JEAN PIERRE MV2 10 MACADAM 46 01:29:11 14,2 115
123 1036 LEFEVRE LAURENT MSE 72 NL 01:29:11 14,2 116
124 583 ROUSSET DAVID MSE 73 NL 01:29:11 14,2 117
125 636 BOUHOULOU LAHSEN MV1 33 CPL PRIMAUBE 01:29:13 14,2 118
126 45 BERNARD PIERRE MSE 74 ESCLOPS D'AZUN 01:29:14 14,2 119
127 767 SCHUSTER PHILIPPE MV2 11   01:29:16 14,2 120
128 859 AZALBERT FREDERIC MSE 75 NL 01:29:18 14,2 121
129 1167 PEREZ FABIEN MSE 76 NL 01:29:19 14,2 122
130 2822 SERNY BRUNO MES 3 NL 01:29:25 14,2 123
131 2734 FIOROTTO GILLES MV1 34 NL 01:29:34 14,1 124
132 53 REYMONENQ MAGALI FV1 4 NCAA 01:29:34 14,1 8
133 2861 BAKOTONIRAINY ANDONIAINA MSE 77 NL 01:29:38 14,1 125
134 564 LARROQUE PATRICK MV1 35 NL 01:29:38 14,1 126
135 952 PANADER ERIC MSE 78 UNIVERSITE PAUL SABATIER 01:29:39 14,1 127
136 627 CHAMBON FLORENT MV1 36 ASPF GAILLAC 01:29:40 14,1 128
137 389 SERRANO CHRISTOPHE MSE 79 LES ZINZINS DES COTEAUX 31 01:29:40 14,1 129
138 684 DARAS JULIEN MSE 80 NL 01:29:43 14,1 130
139 2738 MAURY LAURENT MV1 37 NL 01:29:43 14,1 131
140 524 GERAUD EMILIEN MSE 81 CA BRIVE 01:29:43 14,1 132
141 1117 COLOMBAIN LIONEL MSE 82   01:29:49 14,1 133
142 2883 LAPORTE CHRISTIAN MV1 38 NL 01:29:55 14,1 134
143 664 MONTEIL LUC MV1 39   01:29:58 14,1 135
144 484 HAMON OLIVIER MV2 12 ASPTT GRAND TOULOUSE 01:30:00 14,1 136
145 732 ALLARD RONAN MSE 83   01:30:10 14,0 137
146 270 ADONIS CHRISTOPHE MSE 84 NL 01:30:22 14,0 138
147 941 CARLIER EMMANUEL MV1 40 NL 01:30:22 14,0 139
148 700 BAEZA JEREMY MSE 85 NL 01:30:23 14,0 140
149 1147 PROSPERI BASTIEN MSE 86   01:30:24 14,0 141
150 1121 RICOTTIER FRANCK MV1 41   01:30:29 14,0 142
151 295 GEOFFRAY GASPARD MES 4 NL 01:30:32 14,0 143
152 639 SIMON CHRISTOPHE MV1 42 COVS 01:30:33 14,0 144
153 1040 MAIROTTE ROMAIN MSE 87 11 CCTP 01:30:33 14,0 145
154 833 LE DIVENAH FREDERIC MV1 43 NL 01:30:34 14,0 146
155 549 HYZY FABIEN MV1 44 MJC ST BAUDILLE 01:30:40 14,0 147
156 1087 PRADINES ERIC MV1 45 ECLA ALBI* 01:30:41 14,0 148
157 864 VERSEUX OLIVIER MV1 46 NL 01:30:42 14,0 149
158 423 PEDROLA FRANCOIS MSE 88 NL 01:30:44 14,0 150
159 238 NANNINI OLIVIER MSE 89 S/L ES AUSSILLON 01:30:47 13,9 151
160 759 MARTIN ALEXANDRE MSE 90   01:30:50 13,9 152
161 676 ROUSSEAU PATRICK MSE 91   01:30:53 13,9 153
162 792 LEPINAY ANTOINE MV1 47 NL 01:31:03 13,9 154
163 138 SAVIGNAC GERARD MV3 1 NL 01:31:07 13,9 155
164 1051 CIVEYRAC PHILIPPE MSE 92 NL 01:31:20 13,9 156
165 2744 DAGON FLORENT MSE 93 NL 01:31:20 13,9 157
166 500 MARTIN JULIE FSE 4 NL 01:31:29 13,8 9
167 2833 MARTY PASCALE FSE 5 TEAM ERRERA 01:31:30 13,8 10
168 40 THIBAULT STEPHANIE FSE 6 CA BALMA 01:31:31 13,8 11
169 846 RENAULT MORGAN MSE 94 LIMAGNE ATHLETE ENDURANCE 01:31:38 13,8 158
170 1073 BOLAN FREDERIC MSE 95 NL 01:31:41 13,8 159
171 2831 HEBERT GREGOIRE MSE 96 NL 01:31:42 13,8 160
172 173 SIMONIN GUILLAUME MSE 97 NL 01:31:44 13,8 161
173 3180 RIVAUT LAURENT MV1 48 NLPACOLIX 01:31:49 13,8 162
174 127 ORTEU JEAN JOSE MV2 13 NL 01:31:55 13,8 163
175 587 CAZALIS OLIVIER MV1 49 NL 01:32:01 13,8 164
176 210 DEVAUX XAVIER MSE 98 OCCITAN TRIATH'LONG 01:32:10 13,7 165
177 2848 TRELA LUDOVIC MV1 50 NL 01:32:14 13,7 166
178 1129 MADER RENE MV2 14 BLAGNAC SC 01:32:16 13,7 167
179 874 CAUBÈRE FRANÇOIS MV1 51 NL 01:32:18 13,7 168
180 599 BARRUCQ JEAN-BERNARD MV3 2 PAU TRIATHLON 01:32:21 13,7 169
181 169 BARTHEZ ADRIEN MES 5 NL 01:32:23 13,7 170
182 1089 DENJEAN REMI MSE 99 NL 01:32:27 13,7 171
183 654 MARTIN ERIC MV1 52 NL 01:32:29 13,7 172
184 2847 JOLY LAURENT MV1 53   01:32:30 13,7 173
185 723 BRICHE ERIC MV1 54 NL 01:32:31 13,7 174
186 269 CAVERIVIERE JEAN-MICHEL MV1 55 NL 01:32:34 13,7 175
187 439 DELMAS THIERRY MV2 15 NL 01:32:34 13,7 176
188 744 ESCAMEZ DARUIS MSE 100   01:32:37 13,7 177
189 333 ROUANET JEAN-PHILIPPE MV1 56 SPLACH ATHLE ISLE JOURDAIN 01:32:39 13,7 178
190 262 VOSSEN WANNES MSE 101 NL 01:32:40 13,7 179
191 2722 KEIN THIBAUT MV1 57 NL 01:32:41 13,7 180
192 289 ZAREVAC CYRIL MV1 58 NL 01:32:42 13,7 181
193 898 GRESSIER JÉRÉMIE MV1 59 NL 01:32:44 13,7 182
194 258 BONNET MICHEL MV2 16 NL 01:32:46 13,6 183
195 202 PEREIRA CHRISTOPHE MV1 60 NL 01:32:47 13,6 184
196 2856 REGNIER CHARLY MSE 102 NL 01:32:48 13,6 185
197 1174 ASSALIT GILLES MV1 61 NL 01:32:49 13,6 186
198 817 CADILLAC SÉBASTIEN MSE 103 NL 01:32:49 13,6 187
199 149 MEALLET JEAN-FRANÇOIS MSE 104 NL 01:32:50 13,6 188
200 796 CHARBONNEL HERVE MSE 105 LIMAGNE ATHLETE ENDURANCE 01:32:50 13,6 189
201 464 LAMY CAROLE FSE 7 NL 01:32:52 13,6 12
202 413 LABONNE LAURENT MSE 106 NL 01:32:57 13,6 190
203 1169 DEVIGNOT OLIVIER MV1 62 TOULOUSE TRI 01:33:00 13,6 191
204 1170 BARROCAL BOB MV1 63 NL 01:33:01 13,6 192
205 861 LAPORTE VINCENT MSE 107 SATUC 01:33:02 13,6 193
206 836 BOUSCAREN HENRI MV2 17 NL 01:33:03 13,6 194
207 965 DEJEAN SEBASTIEN MSE 108 NL 01:33:06 13,6 195
208 712 VALLERNAUD VINCENT MV1 64   01:33:09 13,6 196
209 2896 CABRERA JORIS MSE 109 FOULEES DU SOU 01:33:11 13,6 197
210 991 HANNY PASCAL MV2 18 NL 01:33:14 13,6 198
211 296 TRICHAUD THIERRY MSE 110 NL 01:33:15 13,6 199
212 988 FAFOURNOUX EMMANUEL MSE 111 NL 01:33:16 13,6 200
213 2853 BOONARD DENKHUN MSE 112 NL 01:33:17 13,6 201
214 1109 LACASSAGNE JEAN MARC MV1 65 NL 01:33:26 13,5 202
215 978 DURAND TONNERRE PHILIPPE MV3 3   01:33:27 13,5 203
216 1042 APPARICIO DAVID MSE 113 11 CCTP 01:33:33 13,5 204
217 1130 CALODAT RAYMOND MV1 66 NL 01:33:34 13,5 205
218 2860 CUBURY THIERRY MV1 67 NL 01:33:34 13,5 206
219 1019 COUDERC JEAN-PIERRE MSE 114   01:33:34 13,5 207
220 248 RULLAUD ARNAUD MV1 68 NL 01:33:40 13,5 208
221 997 MASSOL JEROME MV1 69 NL 01:33:44 13,5 209
222 595 GOUPIL LAURENT MV1 70 NL 01:33:45 13,5 210
223 1171 LACAZE BERNARD MV1 71 NL 01:33:48 13,5 211
224 57 BASTIDA PHILIPPE MV1 72 NL 01:33:57 13,5 212
225 288 BIGNON EMMANUEL MSE 115 NL 01:34:15 13,4 213
226 1124 MOUYEM NEIL MES 6 NL 01:34:16 13,4 214
227 660 ALLARD DAVID MSE 116   01:34:19 13,4 215
228 1144 TEIXEIRA ARNAUD MSE 117 POMPIERS COLOMIERS 01:34:22 13,4 216
229 438 BOUHIRON NICOLAS MSE 118 NL 01:34:23 13,4 217
230 95 VALETTE ROMAIN MSE 119 NL 01:34:23 13,4 218
231 1128 MANGIN STEPHANE MSE 120 NL 01:34:26 13,4 219
232 543 ROUAIX PASCAL MSE 121   01:34:28 13,4 220
233 126 VANUXEM MICKAEL MV1 73 NL 01:34:28 13,4 221
234 615 CHOMETTE FREDERIC MV1 74 NL 01:34:29 13,4 222
235 2727 DELMAS QUENTIN MSE 122 IPI ALBI 01:34:31 13,4 223
236 108 GUESNERIE MICKAEL MV1 75 NL 01:34:35 13,4 224
237 891 ROQUES OLIVIER MV1 76 NL 01:34:36 13,4 225
238 367 MOLLARD JEAN PHILIPPE MV1 77 NL 01:34:37 13,4 226
239 880 ROCACHER MAGALI FV1 5 BSC ATHLE 01:34:39 13,4 13
240 1055 DOSSARD 1055 MSE 123 NL 01:34:40 13,4 227
241 94 BASSI JEAN MARC MV1 78 NL 01:34:43 13,4 228
242 809 AVELLAN PASCAL MV1 79 NL 01:34:47 13,4 229
243 763 NANCHE JEAN CLAUDE MV1 80 NL 01:34:48 13,4 230
244 3165 HATHOUTI ABDELHADI MV2 19 NL 01:34:50 13,3 231
245 334 COIRIER DAVID MSE 124 NL 01:34:51 13,3 232
246 1059 REGEREAU NICOLAS MSE 125 BPBO ESCALQUENS 01:34:52 13,3 233
247 1061 BEN YOUNES MOHAMED ALI MSE 126 NL 01:34:53 13,3 234
248 371 LAYE JEAN PIERRE MV1 81 CPL PRIMAUBE 01:34:54 13,3 235
249 853 DARNIS BRUNO MV1 82 NL 01:34:55 13,3 236
250 920 IMART SYLVAIN MSE 127 NL 01:34:57 13,3 237
251 691 FERRANDO ALAIN MV2 20 CA BALMA 01:34:58 13,3 238
252 661 PERESSOTTI JEAN CHRISTOPHE MV1 83   01:35:06 13,3 239
253 797 TABURET GUILLAUME MSE 128 NL 01:35:06 13,3 240
254 768 SIAMES CHRISTIAN MV2 21   01:35:07 13,3 241
255 69 COMMENGE CYRIL MSE 129 NL 01:35:07 13,3 242
256 544 DELBEZ ALAIN MV2 22   01:35:09 13,3 243
257 709 LESTOQUOY ANDRE MSE 130 AS 26 01:35:12 13,3 244
258 355 PEREZ JEAN MV1 84 NL 01:35:13 13,3 245
259 1025 GUIRAL JEROME MSE 131 NL 01:35:16 13,3 246
260 403 RIGAL GUILLAUME MSE 132 NL 01:35:18 13,3 247
261 658 DALL'ORSO MICKAEL MSE 133   01:35:21 13,3 248
262 141 GUTIERRES JEAN-LOUIS MV1 85 NL 01:35:22 13,3 249
263 1131 DAUCE PIERRE MV2 23 NL 01:35:24 13,3 250
264 2839 SORIANO BENOIT MJU 1 NL 01:35:29 13,3 251
265 1139 GALBAN REMI MV2 24 NL 01:35:32 13,3 252
266 758 SAGGIORO LAURENT MSE 134 NL 01:35:34 13,2 253
267 2739 LE MOING SYLVAIN MV1 86   01:35:36 13,2 254
268 512 PEREZ FREDERIC MSE 135 NL 01:35:40 13,2 255
269 420 DIDIER HARD MV1 87 NL 01:35:41 13,2 256
270 726 MOREAU THIERRY MV1 88 ASPF 01:35:41 13,2 257
271 3139 DESSOULI KARIM MV1 89 NL 01:35:48 13,2 258
272 703 MATHIE CLAVERIE NATHALIE FV1 6 CA BALMA 01:35:51 13,2 14
273 285 BASQUE LIONEL MSE 136 NL 01:35:56 13,2 259
274 412 CORRE ALAIN MV2 25 CAIMANS DU SÉNÉGAL 01:35:56 13,2 260
275 88 ODET JEAN BAPTISTE MES 7 NL 01:35:57 13,2 261
276 263 LANGLOIS XAVIER MSE 137 NL 01:36:02 13,2 262
277 2897 LACAMBRA YANNICK MV1 90 FOULEES DU SOU 01:36:04 13,2 263
278 2837 ABBATE CHRISTOPHE MV1 91 NL 01:36:07 13,2 264
279 743 DUVAL AURELIE FSE 8   01:36:07 13,2 15
280 905 FILLOL LAURENT MV1 92   01:36:07 13,2 265
281 241 GERARDO MICHEL MV1 93 NL 01:36:08 13,2 266
282 845 SCHNEIDER JEAN-BAPTISTE MSE 138 NL 01:36:11 13,2 267
283 600 RIVIERE FRANCK MSE 139 NL 01:36:12 13,2 268
284 486 VERSAILLE GREGORY MV1 94 NL 01:36:13 13,2 269
285 190 ESTIVALET CEDRIC MSE 140 NL 01:36:16 13,2 270
286 540 ABADIE FRÉDÉRIC MSE 141 NL 01:36:17 13,1 271
287 2842 PLANCHE GUILLAUME MSE 142 NL 01:36:19 13,1 272
288 705 DEYSSAUTIER LAURENT MV1 95 NL 01:36:21 13,1 273
289 2737 CAVAILLES JEROME MSE 143 NL 01:36:23 13,1 274
290 986 JUAN STEPHANE MV1 96 NL 01:36:24 13,1 275
291 672 BIOLET FREDERIC MSE 144 NL 01:36:24 13,1 276
292 999 DELORME ROMAIN MSE 145 NL 01:36:26 13,1 277
293 551 ZEGLANY JEAN MARC MV1 97 NL 01:36:26 13,1 278
294 562 COURTIAL RÉMI MV1 98 NL 01:36:28 13,1 279
295 2736 CHOTEL YANN MSE 146 NL 01:36:33 13,1 280
296 998 BAVIERE HENRI MSE 147 NL 01:36:35 13,1 281
297 383 DELORI ALEXANDRE MV1 99 COURIR A SEILH 01:36:36 13,1 282
298 2849 LACROIX PATRICK MV2 26   01:36:38 13,1 283
299 955 TASSIN STEPHANE MSE 148 NL 01:36:43 13,1 284
300 497 TEILLETCHE SERGE MV2 27 MONTAUBAN ATHLETISME 01:36:44 13,1 285
301 452 SAINT PIERRE JEREMY MSE 149   01:36:53 13,1 286
302 979 VIGER RAPHAEL MV2 28 NL 01:36:57 13,1 287
303 70 MARCHANT GEOFFREY MSE 150 NL 01:37:02 13,0 288
304 3190 DOSSARD 3190 MSE 151 NL 01:37:05 13,0 289
305 64 FILODEAU LIONEL MV2 29 ASA LAVAUR 01:37:06 13,0 290
306 189 MATHON XAVIER MSE 152 NL 01:37:06 13,0 291
307 1118 CHARRY JOEL MV1 100   01:37:10 13,0 292
308 450 TENOT FRANCIS MV1 101 NL 01:37:12 13,0 293
309 904 BRUNEL FABIEN MSE 153   01:37:13 13,0 294
310 831 MALLE ERIC MV1 102 NL 01:37:19 13,0 295
311 659 ARMET PHILIPPE MSE 154   01:37:19 13,0 296
312 83 BADIA THOMAS MSE 155 NL 01:37:19 13,0 297
313 2997 GIBERGUES DONATIEN MSE 156 NL 01:37:25 13,0 298
314 1151 GINESTET BENOIT MSE 157 NL 01:37:25 13,0 299
315 911 FABLET STEPHANE MSE 158 I'ARRIBARHEM D'AUREVILLE 01:37:37 13,0 300
316 1168 ROBINET JEAN JACQUES MV2 30 NL 01:37:42 13,0 301
317 48 ALBAN VINCENT MSE 159 NL 01:37:43 13,0 302
318 494 LAGARRIGUE GILLES MV1 103 NL 01:37:49 12,9 303
319 1196 CONNOND DENIS MV2 31 AS ST MEDARD 01:37:50 12,9 304
320 675 NONNON HERVE MV1 104 NL 01:37:53 12,9 305
321 1001 BENABI MATHIEU MSE 160 NL 01:37:55 12,9 306
322 975 LACAUSTE DAVID MV1 105 NL 01:37:55 12,9 307
323 2717 AZOUGHUI SAID MSE 161 NL 01:37:59 12,9 308
324 729 LASCOUX LAURENT MSE 162 NL 01:38:00 12,9 309
325 179 MONTESANO YANN MSE 163 NL 01:38:03 12,9 310
326 331 SCHEIBER GABOR FERENC MSE 164 NL 01:38:04 12,9 311
327 584 ARISTIDE BRUNO MV1 106 NL 01:38:08 12,9 312
328 1182 OULDAA AHMED MV1 107 NL 01:38:12 12,9 313
329 766 RIEUL DIDIER MV1 108   01:38:12 12,9 314
330 811 BESSIERE LAURENT MSE 165 NL 01:38:12 12,9 315
331 949 PICOT CEDRIC MSE 166 NL 01:38:12 12,9 316
332 1153 BOUSQUET JACQUES MV2 32 NL 01:38:22 12,9 317
333 708 COSTES DIDIER MV2 33 AUCH TRIATHLON 01:38:22 12,9 318
334 431 TURQ CLAIRE FSE 9 CPL PRIMAUBE 01:38:23 12,9 16
335 871 BLANCO DAVID MV2 34 MACADAM 46 01:38:25 12,9 319
336 959 TARFA CHERIF MSE 167 11 CCTP 01:38:29 12,9 320
337 827 FRANCISQUE LUDOVIC MSE 168 NL 01:38:32 12,8 321
338 2855 JAMIN THOMAS MSE 169 NL 01:38:32 12,8 322
339 665 WALLEZ LAURENT MV1 109 NL 01:38:33 12,8 323
340 934 LENZI SERGE MV3 4 AC AUCH 01:38:35 12,8 324
341 588 CAZALIS STÉPHANE MV1 110 NL 01:38:37 12,8 325
342 1111 BAULLERET OLIVIER MSE 170 NL 01:38:50 12,8 326
343 916 KIPPER MICHEL MSE 171   01:38:50 12,8 327
344 307 CHEVALIER BRUNO MV1 111 NL 01:38:50 12,8 328
345 2865 BASTIAT FRANCIS MV2 35 NL 01:38:52 12,8 329
346 695 FELICELLI JEAN CLAUDE MV1 112   01:38:54 12,8 330
347 550 LE DRET GWENNHAEL MSE 172 NL 01:39:00 12,8 331
348 434 FUENTEALBA MAXIMILIANO MSE 173 NL 01:39:00 12,8 332
349 2892 CHARRIER HELENE FV1 7 CA BALMA 01:39:01 12,8 17
350 2859 CHOLAT NAMY THIERRY MV2 36   01:39:05 12,8 333
351 140 FANTIN FREDERIC MV1 113 BLAGNAC SC 01:39:05 12,8 334
352 783 SERRES MATHIEU MSE 174 OCCITAN TRIATH'LONG 01:39:09 12,8 335
353 858 BERGOUNIOUX FRANCIS MV1 114 MACADAM 46 01:39:17 12,8 336
354 1003 BRUNEL NICOLAS MSE 175 NL 01:39:20 12,7 337
355 541 RAMALHO JEAN-MICHEL MSE 176 NL 01:39:22 12,7 338
356 1035 MASSARDY LAURENT MV1 115 NL 01:39:27 12,7 339
357 834 VERDEYME NICOLAS MSE 177 TOAC TRIATHLON 01:39:28 12,7 340
358 830 DJAIZ ALAIN MV1 116 NL 01:39:29 12,7 341
359 481 DELVINGT MARIE ANNE FV1 8 NL 01:39:32 12,7 18
360 555 FERRIÉ ALAIN MV1 117   01:39:32 12,7 342
361 1090 DUPUY THIERRY MV1 118 NL 01:39:38 12,7 343
362 530 RAVAYROL CHRISTOPHE MSE 178 NL 01:39:40 12,7 344
363 940 LONGUEVILLE ERIC MV2 37 CAC CAUSSSADE 01:39:42 12,7 345
364 271 JOFFRE DAMIEN MSE 179 NL 01:39:45 12,7 346
365 2703 PERATE BORYCE MV1 119 NL 01:39:46 12,7 347
366 208 COSMA DANIEL MV1 120 NL 01:39:48 12,7 348
367 1137 EL MRHABBER HAKIM MSE 180 NL 01:39:49 12,7 349
368 128 WITTMER BERTRAND MV1 121 NL 01:39:50 12,7 350
369 838 COMBES BENOÎT MSE 181 NL 01:39:50 12,7 351
370 2900 PHILOMIN CAROLE FV1 9 FOULEES DU SOU 01:39:51 12,7 19
371 107 FAUGERE HERVE MV1 122 PEMP 01:39:54 12,7 352
372 226 BRONDEAU LAURENT MV1 123   01:39:56 12,7 353
373 925 FARDOUX MARC MV1 124 AS MURET TRIATHLON 01:39:59 12,7 354
374 387 AGUERA ALAIN MSE 182 NL 01:40:01 12,7 355
375 563 MIQUEL THIERRY MV1 125 NL 01:40:04 12,6 356
376 408 DAGUIN OLIVIER MV1 126 NL 01:40:07 12,6 357
377 1152 FONTAINE BERTRAND MSE 183 NL 01:40:08 12,6 358
378 614 BORTELLE SYLVAIN MSE 184 NL 01:40:12 12,6 359
379 278 PLANTIE ERIC MV1 127 NL 01:40:14 12,6 360
380 902 BONNES YVES MV3 5   01:40:17 12,6 361
381 251 GUTIERREZ LUDOVIC MSE 185 NL 01:40:23 12,6 362
382 2898 SIEURAC JOSIAN MSE 186 SAVERDUM COURIA 01:40:23 12,6 363
383 764 NEUZILLET STEPHANE MSE 187   01:40:23 12,6 364
384 698 BARAT MICKAEL MSE 188 mickaelbarat@hotmail.fr 01:40:27 12,6 365
385 1133 CEBRIAN JEAN MICHEL MV1 128 NL 01:40:30 12,6 366
386 1132 VIROS CLAUDINE FV1 10 NL 01:40:30 12,6 20
387 2879 BOUVY QUENTIN MSE 189 NL 01:40:31 12,6 367
388 575 BELHOMME REGIS MSE 190 CA BRIVE 01:40:33 12,6 368
389 897 DUNAT BERTRAND MSE 191 NL 01:40:40 12,6 369
390 869 NICOT THOMAS MES 8 NL 01:40:42 12,6 370
391 2732 JOUANNE FABIEN MSE 192 TOULOUSE TRI 01:40:44 12,6 371
392 312 LE TOLLEC ODILE FV2 2 CA BALMA 01:40:45 12,6 21
393 1041 LE MERRER JEROME MSE 193 11 CCTP 01:40:51 12,6 372
394 697 BRUN BASTIEN MSE 194 NL 01:40:53 12,5 373
395 1086 DURAND CEDRIC MSE 195 NL 01:40:56 12,5 374
396 2874 MARTIN FRANCOIS XAVIER MSE 196 NL 01:40:59 12,5 375
397 508 THEIL MICHAEL MSE 197 NL 01:41:00 12,5 376
398 2899 GALLET ERIC MV1 129 FOULEES DU SOU 01:41:02 12,5 377
399 177 ROUVELLAT LIONEL MSE 198 NL 01:41:03 12,5 378
400 192 ARCIDET JEAN-MICHEL MV1 130 NL 01:41:08 12,5 379
401 1085 ODETTI CHRISTINE FV2 3 MACADAM COLOMIERS 01:41:10 12,5 22
402 798 PAYET THIERRY MV1 131 NL 01:41:13 12,5 380
403 2869 FERRIER LENNY MES 9 NL 01:41:16 12,5 381
404 1043 LEMAITRE JULIEN MSE 199 11 CCTP 01:41:17 12,5 382
405 601 TREGOU CHANTAL FV1 11 AC GIGOUZAC-ST/GERMAIN 01:41:18 12,5 23
406 354 BASQUE GILLES MV2 38 COURIR A FONTENILLES 01:41:19 12,5 383
407 1886 DE OLIVEIRA MARIE FSE 10 ATHLE 632 01:41:20 12,5 24
408 592 VEUILLET JEAN LUC MV2 39 NL 01:41:22 12,5 384
409 42 LAURIN LACOSTE DANIELLE FV1 12   01:41:25 12,5 25
410 159 CHAUSSON PIERRE-GEORGES MV2 40 NL 01:41:27 12,5 385
411 200 LARUE DAVID MSE 200 NL 01:41:27 12,5 386
412 1122 CASTAY MATTHIEU MSE 201 NL 01:41:30 12,5 387
413 713 VERYAZOV ALEXANDER MSE 202 ISAE ENSICA TOULOUSE 01:41:32 12,5 388
414 1091 COUILLENS XAVIER MV1 132 NL 01:41:33 12,5 389
415 463 TOUTAIN PASCAL MSE 203 NL 01:41:36 12,5 390
416 569 GARRIGUE JEAN-CLAUDE MV2 41 NL 01:41:38 12,5 391
417 445 VANDENBROUCKE BENJAMIN MSE 204 TEAM MARSOUL 01:41:39 12,5 392
418 499 DAVOUT NICOLAS MSE 205 NL 01:41:41 12,4 393
419 96 VINOT JULIEN MSE 206 NL 01:41:41 12,4 394
420 531 ROUDIERE PHILIPPE MV1 133 SHARKS TRIATHLON 01:41:44 12,4 395
421 490 CUSSOL SEBASTIEN MSE 207 NL 01:41:46 12,4 396
422 2857 BRAYET ADRIEN MES 10 NL 01:41:49 12,4 397
423 1067 BOISSIER THIERRY MV1 134 NL 01:41:52 12,4 398
424 751 HARSCOET GWENAELLE FSE 11   01:41:53 12,4 26
425 604 LISSALDE LAURENCE FSE 12 NL 01:41:54 12,4 27
426 293 HUSSON SYLVIE FV2 4 NL 01:41:56 12,4 28
427 800 DUMONT DENIS MV2 42 NL 01:41:59 12,4 399
428 799 COMMENGE SEBASTIEN MSE 208 NL 01:42:00 12,4 400
429 447 SADEVE ALEXANDRE MSE 209 NL 01:42:00 12,4 401
430 901 LAVERGNE GERAUD MSE 210 NL 01:42:00 12,4 402
431 225 GUERIN JEREMY MSE 211 NL 01:42:05 12,4 403
432 570 SEGUELAS BENJAMIN MSE 212 NL 01:42:06 12,4 404
433 279 DUPRÉ OLIVIER MSE 213 NL 01:42:09 12,4 405
434 731 LAUR GILLES MV2 43 NL 01:42:24 12,4 406
435 261 BALASTEGUI ERIC MV2 44 TRIATHLON CASTRES 01:42:27 12,4 407
436 113 CARLIER BENOIT MV2 45 PASS RUNNING 01:42:29 12,4 408
437 414 REBOUD ROMAN MSE 214 TEAM RAIDLIGHT 01:42:32 12,3 409
438 784 MORIN LIONEL MV1 135 NL 01:42:33 12,3 410
439 415 CHOPARD LALLIER MARIANNE FSE 13 TEAM RAIDLIGHT 01:42:34 12,3 29
440 426 MAIRAL STÉPHANE MV1 136 NL 01:42:38 12,3 411
441 235 COTTET OLIVIER MV1 137 CERCLE ATHL. CASTELSARRASINOIS 01:42:39 12,3 412
442 1044 TRICOIRE ANTHONY MSE 215 11 CCTP 01:42:42 12,3 413
443 1158 PEREZ OLIVIER MSE 216 NL 01:42:44 12,3 414
444 162 MONRIBOT JEAN-FRANÇOIS MSE 217 LES GRASILIENS 01:42:48 12,3 415
445 231 GUICHOT PHILIPPE MV1 138 NL 01:42:48 12,3 416
446 805 DJEBARI JEROME MSE 218 ASAF AIR FRANCE 01:42:49 12,3 417
447 399 HUBERT DAVID MV1 139 NL 01:42:49 12,3 418
448 848 SCHEFFER CHRISTIAN MV2 46 PORTET ATHLETIC CLUB 01:42:51 12,3 419
449 628 GUITARD LAURENT MV1 140 NL 01:42:56 12,3 420
450 1176 RASCLE DIDIER MV2 47 NL 01:42:56 12,3 421
451 3121 DOSSARD 3121 MSE 219 NL 01:42:57 12,3 422
452 350 COURBIERE PHILIPPE MSE 220   01:42:59 12,3 423
453 1156 DE LACROIX JEAN MARC MV1 141 NL 01:43:02 12,3 424
454 2863 PELI FABRICE MSE 221 NL 01:43:02 12,3 425
455 2841 ROQUES NICOLAS MSE 222 NL 01:43:07 12,3 426
456 872 ALLAIS DOMINIQUE MV3 6   01:43:12 12,3 427
457 835 LOISON ERIC MV2 48 ECLA ALBI* 01:43:12 12,3 428
458 178 TIWAPORNCHAROENCHAI NATTAPONG MSE 223 NL 01:43:16 12,3 429
459 985 IZARD DOMINIQUE MV2 49 NL 01:43:19 12,3 430
460 1126 GOUDJILI HABIB MV1 142 NL 01:43:20 12,3 431
461 152 GIMET CHRISTOPHE MSE 224 NL 01:43:22 12,2 432
462 1150 ZWOLINSKI SYLVAIN MSE 225 NL 01:43:24 12,2 433
463 1119 LEYTER FRANCIS MV1 143   01:43:25 12,2 434
464 267 BOURTHOUMIEU DIDIER MV1 144 MONTAUBAN ATHLETISME 01:43:28 12,2 435
465 733 ANIZAN JEAN PAUL MV2 50   01:43:29 12,2 436
466 283 ESTANG JEAN LUC MV1 145 NL 01:43:31 12,2 437
467 1181 GUEMENE LOIC MSE 226 NL 01:43:34 12,2 438
468 944 NEDDAM NICOLAS MSE 227 NL 01:43:34 12,2 439
469 3162 BONTEMPS LAURENT MV1 146 TRIBAL RNNING EXPERIENCE 01:43:35 12,2 440
470 507 BERNARD GUILLAUME MSE 228 NL 01:43:36 12,2 441
471 669 DUBERNAT AGNÈS FV1 13 NL 01:43:37 12,2 30
472 440 TEYCHENNÉ XAVIER MSE 229 NL 01:43:38 12,2 442
473 433 ANSELME NICOLAS MSE 230 NL 01:43:42 12,2 443
474 884 TORTECH ERIC MV2 51   01:43:45 12,2 444
475 621 KINT LAURENT MSE 231 NL 01:43:45 12,2 445
476 577 CARETTA MARC MV1 147 NL 01:43:46 12,2 446
477 73 SENEVAT THIERRY MV1 148 NL 01:43:46 12,2 447
478 921 CHOY RAPHAËL MSE 232 NL 01:43:47 12,2 448
479 1009 THAMIE GILLES MV1 149   01:43:59 12,2 449
480 298 PUGNET CHARLES MSE 233 NL 01:44:01 12,2 450
481 171 DURIF FABIEN MV1 150 NL 01:44:02 12,2 451
482 301 JACOLIN ROBERT MSE 234 TOULOUSE TRI 01:44:10 12,2 452
483 529 DAIRON NICOLAS MSE 235 LES GALOPINS DES BOIS 01:44:12 12,1 453
484 421 TERRINHA MARJORIE FSE 14 SPLACH ATHLE ISLE JOURDAIN 01:44:15 12,1 31
485 677 ELISSALDE LOIC MSE 236   01:44:20 12,1 454
486 197 ECHARDOUR SÉBASTIEN MSE 237 NL 01:44:20 12,1 455
487 642 ESTIENNE YVAN MV1 151 NL 01:44:24 12,1 456
488 299 HIVERT JEAN-PHILIPPE MSE 238 NL 01:44:24 12,1 457
489 492 KHELIFA MALIKA FSE 15 CA CAUSSADE 01:44:24 12,1 32
490 2704 MASSAT JEROME MSE 239 RETINA 01:44:28 12,1 458
491 308 LAFFONT PASCAL MSE 240 NL 01:44:29 12,1 459
492 770 TALBI KADER MV1 152   01:44:29 12,1 460
493 981 FORT LUDOVIC MSE 241 NL 01:44:30 12,1 461
494 837 MALFOY PIERRE MV1 153 NL 01:44:31 12,1 462
495 745 GARCIA MARTIN BERNARDO MV2 52   01:44:34 12,1 463
496 1030 LIMOZIN RODOLPHE MSE 242   01:44:37 12,1 464
497 945 NEDDAM FRANCOIS MSE 243 NL 01:44:37 12,1 465
498 886 PISANI PATRICK MSE 244   01:44:38 12,1 466
499 881 DAVAILLES FLORENCE FV1 14 NL 01:44:40 12,1 33
500 828 FONTAINE GILLES MV1 154 NL 01:44:42 12,1 467
501 2862 BONNEFOUS BERNARD MV2 53 CERCLE ATHL. CASTELSARRASINOIS 01:44:44 12,1 468
502 1165 SEBAONI DENIS MV2 54 NL 01:44:46 12,1 469
503 789 LACOSTE JEAN-MARC MV1 155 NL 01:44:49 12,1 470
504 559 TRANTOUL DIDIER MV1 156 NL 01:44:49 12,1 471
505 122 ROTH JULIEN MSE 245 NL 01:44:50 12,1 472
506 309 BERNARD PIERRE MV1 157 NL 01:44:51 12,1 473
507 294 GEOFFRAY SAMUEL MSE 246 NL 01:44:52 12,1 474
508 619 REJAUD GILLES MV2 55 NL 01:44:52 12,1 475
509 808 INSA DANTIO MV1 158 NL 01:44:54 12,1 476
510 353 VICTOR CHRISTELLE FV1 15 TOULOUSE TRI 01:44:54 12,1 34
511 461 TRESSENS MICHEL MV2 56 DUATHLON LIEBHERR AEOSPACE TOULOUSE 01:44:54 12,1 477
512 701 POEY JEAN MICHEL MV1 159 CE LIEBHERR 01:44:55 12,1 478
513 976 SAURAT JEROME MV1 160 NL 01:44:55 12,1 479
514 1106 CURUTCHET CHRISTINE FV1 16 NL 01:44:56 12,1 35
515 852 JORET LUC MV1 161 NL 01:44:56 12,1 480
516 657 GOUNI PHILIPPE MV2 57   01:44:57 12,1 481
517 545 BEGUE JEAN CLAUDE MV2 58   01:44:57 12,1 482
518 561 MORAND JULIEN MSE 247 NL 01:44:57 12,1 483
519 1145 ZAYANI RACHID MSE 248 NL 01:44:58 12,1 484
520 648 BRETHOUX JULIEN MSE 249 JOGGING CLUB BORDEROUGE 01:44:58 12,1 485
521 857 BOUSQUET BENOIT MV3 7 MACADAM 46 01:44:59 12,1 486
522 578 ZABRANIECKI LAURENT MV1 162 NL 01:45:00 12,1 487
523 585 GARNIER DANIEL MV1 163 NL 01:45:04 12,0 488
524 2844 JORDAN ALEXANDRE MSE 250 NL 01:45:06 12,0 489
525 61 MAYEUR GREGORY MV1 164 NL 01:45:07 12,0 490
526 862 DORGANS JULIEN MSE 251 NL 01:45:08 12,0 491
527 746 GRAU PHILIPPE MSE 252   01:45:08 12,0 492
528 2838 NELSON GARY MV1 165 NL 01:45:10 12,0 493
529 586 CLUSE RICHARD MSE 253 NL 01:45:11 12,0 494
530 337 KASPOU DAVID MSE 254 ATHLE 632 01:45:11 12,0 495
531 277 MARROU VALÉRIE FV1 17 NL 01:45:11 12,0 36
532 972 ALDEBERT SABINE MV2 59 NL 01:45:12 12,0 496
533 950 ALAUX RICHARD MV1 166 NL 01:45:13 12,0 497
534 1010 ANDRE PIERRE MV2 60 NL 01:45:14 12,0 498
535 378 GENCE RÉMI MSE 255 NL 01:45:14 12,0 499
536 2725 REBY SEBASTIEN MSE 256 AS CHU 01:45:17 12,0 500
537 1084 LAFFONT BERTRAND MSE 257 RUNNOSPHERE TTT 01:45:17 12,0 501
538 2720 SINIGAGLIA ANYHONY MSE 258 NL 01:45:17 12,0 502
539 1062 LAVIALLE THIERRY MV1 167 TPT 01:45:18 12,0 503
540 473 HÉDON ARMAND MSE 259 NL 01:45:20 12,0 504
541 1058 PIERSON HELENE FV1 18 BPBO ESCALQUENS 01:45:21 12,0 37
542 876 LAVAL GILLES MV1 168 NL 01:45:22 12,0 505
543 346 PONS GERMAIN YVES-ROBERT MSE 260 NL 01:45:22 12,0 506
544 377 POIRIER AURÉLIEN MSE 261 NL 01:45:23 12,0 507
545 2840 SPOERRY GAUTHIER MSE 262 NL 01:45:25 12,0 508
546 247 MAZIN CYRIL MV1 169 NL 01:45:28 12,0 509
547 1103 PAYTRA PATRICE MSE 263 NL 01:45:32 12,0 510
548 3134 ZAPPE ROLAND MV2 61 NL 01:45:34 12,0 511
549 2851 MAGLIONE JONATHAN MES 11 NL 01:45:36 12,0 512
550 760 MAYSOUNAVE JEAN LUC MSE 264   01:45:36 12,0 513
551 84 TRAVERE WILLIAM MSE 265 NL 01:45:36 12,0 514
552 1052 ELAOUD FAYCAL MSE 266 NL 01:45:56 11,9 515
553 390 CARTEAU ROGER MV2 62 NL 01:45:57 11,9 516
554 388 CAMINAT CHRISTIAN MV2 63 ATSCAF ENSIP 01:45:58 11,9 517
555 328 VAREIL MARIE-CHANTAL FV3 1 NL 01:45:59 11,9 38
556 2845 LEDERAC PIERRE MV2 64 AC PAMIERS 01:46:04 11,9 518
557 714 ARPIZOU ERIC MV1 170 NL 01:46:04 11,9 519
558 748 GALLAND JEAN FRANCOIS MV2 65 NL 01:46:10 11,9 520
559 521 CAMUS SERGE MV2 66 MAC'ADAM 01:46:11 11,9 521
560 506 GANSEMAN MATHIEU MSE 267 NL 01:46:12 11,9 522
561 1023 PRETOT JEROME MV1 171 NL 01:46:16 11,9 523
562 90 MAZARS NICOLAS MSE 268 NL 01:46:18 11,9 524
563 556 GUIMBERTEAU DAMIEN MSE 269 AC AUTERIVE 01:46:18 11,9 525
564 605 RICHARD ALAIN MV2 67 NL 01:46:19 11,9 526
565 344 CORRERELLA JOSEPH MV1 172 NL 01:46:19 11,9 527
566 184 RENAUD PHILIPPE MV1 173 PEMP 01:46:19 11,9 528
567 788 JAN SÉBASTIEN MV1 174 NL 01:46:28 11,9 529
568 591 AFONSO JEAN-PIERRE MSE 270 BLAGNAC SC 01:46:28 11,9 530
569 689 MARCHAND NICOLAS MV1 175 TEAM RAIDLIGHT 01:46:29 11,9 531
570 908 WOJCIESZONAK JACQUES FV2 5   01:46:35 11,9 39
571 349 DE ROQUETTE THIBAUT MV1 176 NL 01:46:36 11,9 532
572 424 SAGNES JEAN-FRANÇOIS MV2 68 NL 01:46:37 11,9 533
573 304 VIGNON PATRICE MV1 177 ACM RUNNING CLUB 01:46:38 11,9 534
574 103 DUROZIER MIKAEL MV1 178 NL 01:46:41 11,9 535
575 730 RENAUT JEAN MARC MV2 69 NL 01:46:42 11,9 536
576 1063 DUPEROU THIERRY MV2 70 NL 01:46:45 11,9 537
577 611 THOMAS DIDIER MV2 71 NL 01:46:47 11,9 538
578 960 GUILHAUPE FLORENCE FV1 19 AC PAMIERS 01:46:48 11,9 40
579 485 BERSANS PAUL MSE 271 NL 01:46:53 11,8 539
580 2864 DIAZ ERIC MSE 272 US CARMAUX 01:46:54 11,8 540
581 1050 BLEY YVES MV1 179   01:46:55 11,8 541
582 951 LUCAS FABIEN MSE 273 NL 01:47:00 11,8 542
583 1002 EL MRHABBER NAIMA FSE 16 TATEX 01:47:01 11,8 41
584 517 PLANTIER ANTHONY MSE 274   01:47:10 11,8 543
585 143 ESPALIEU EMELINE FSE 17 NL 01:47:12 11,8 42
586 606 PICCO MARC MV2 72 NL 01:47:14 11,8 544
587 2858 NOUXET DENY MV2 73 CONURIR FONSEGRIVES 01:47:18 11,8 545
588 2852 LODGE MASSON CHARMAINE FV1 20 NL 01:47:20 11,8 43
589 124 PATURON CORINNE FV1 21 NL 01:47:21 11,8 44
590 2868 SY JEAN-FRANCIS MV3 8 S/L TOULOUSE OAC 01:47:21 11,8 546
591 418 FERRAND DOMINIQUE FV2 6 CLERMONT SPORT ENDURANCE 01:47:23 11,8 45
592 854 GREGOIRE PATRICE MSE 275 NL 01:47:31 11,8 547
593 322 BRISCADIEU DENIS MV2 74 SPLACH ATHLE ISLE JOURDAIN 01:47:32 11,8 548
594 875 MOURA GRÉGORY MSE 276 NL 01:47:34 11,8 549
595 310 TAYTARD ANDRE MV1 180   01:47:37 11,8 550
596 362 RAVAYROL CHRISTINE FV1 22 CA BALMA 01:47:40 11,8 46
597 810 BONNEAULT BERGAMOTE FSE 18 NL 01:47:43 11,8 47
598 552 BARROS GAVILANES JUAN MSE 277 TUC TRIATHLON 01:47:44 11,8 551
599 381 CALVAYRAC OLIVIER MSE 278 NL 01:47:44 11,8 552
600 980 MESPLANDY LUCILE FSE 19 NL 01:47:45 11,7 48
601 815 DELBOSC SANDRINE FV1 23 NL 01:47:46 11,7 49
602 2708 BORNANT JEAN LUC MV1 181 NL 01:47:48 11,7 553
603 818 PORTE MATHIEU MSE 279 NL 01:47:48 11,7 554
604 816 ALIDOR BASTIEN MSE 280 NL 01:47:48 11,7 555
605 125 PATURON DENIS MV1 182 NL 01:47:51 11,7 556
606 2726 ROUBIOU FREDERIC MSE 281 NL 01:47:54 11,7 557
607 1039 KINDLER KEVIN NDI MES 12 11 CCTP 01:47:54 11,7 558
608 144 SANCHEZ CHRISTOPHE MSE 282 ASSOCIATION RECHERCHE TUMEURS CÉRÉBRALES 01:47:56 11,7 559
609 1068 ANTOINE FABIEN MV1 183 NL 01:47:58 11,7 560
610 194 NTSAMA LANDRY MSE 283 NL 01:48:00 11,7 561
611 166 BARTHEZ JOEL MV2 75 NL 01:48:02 11,7 562
612 335 BONILLA CHRISTIAN MV2 76 ASSOCIATION MAC ADAM COLOMIERS 01:48:02 11,7 563
613 292 SALLES FABIEN MSE 284 NL 01:48:05 11,7 564
614 957 MERCIER YANNICK FV1 24 NL 01:48:09 11,7 50
615 330 KAMARID ANTJE FSE 20   01:48:11 11,7 51
616 1163 BRUNET DOMINIQUE MV1 184 NL 01:48:13 11,7 565
617 2827 LE BRUN STEPHANE MV1 185 NL 01:48:16 11,7 566
618 256 DE POOTER AMBRE FSE 21 DISCO 01:48:17 11,7 52
619 315 HAGUENIN FRANCK MSE 285 CA BEGLAIS 01:48:20 11,7 567
620 287 LACASSAGNE YANNICK MV1 186 NL 01:48:22 11,7 568
621 2843 BARTHES YANNICK MV2 77 NL 01:48:23 11,7 569
622 1141 GALBAN SIMON MSE 286 NL 01:48:23 11,7 570
623 924 GREEN VANESSA FSE 22 NL 01:48:24 11,7 53
624 281 ALBINET DIDIER MV2 78 BOL D'AIR GIGNACOIS 01:48:28 11,7 571
625 525 FERMI LIONEL MV2 79   01:48:31 11,7 572
626 932 DECOUT LAURENT MV1 187 NL 01:48:33 11,7 573
627 1048 ASTIER ERIC MV1 188   01:48:44 11,6 574
628 91 AVRY JÉRÔME MSE 287 NL 01:48:45 11,6 575
629 1053 ETASSE STEPHANE MV1 189 NL 01:48:47 11,6 576
630 774 BENAYOUN LAURENT MV1 190   01:48:51 11,6 577
631 956 BOUSQUET BRUNO MV1 191 NL 01:48:51 11,6 578
632 478 DAZA FRANCK MV2 80 NL 01:49:00 11,6 579
633 505 BRUN JULIEN MSE 288 NL 01:49:02 11,6 580
634 633 LEBAILLY DENIS MV1 192 NL 01:49:06 11,6 581
635 634 LEBAILLY SYLVIE FV1 25 NL 01:49:06 11,6 54
636 1177 HAMON SYLVAIN MSE 289 NL 01:49:08 11,6 582
637 608 PALLAS SEBASTIEN MSE 290 GOODPEOPLERUN 01:49:09 11,6 583
638 958 CRAWLEY SAM MSE 291   01:49:12 11,6 584
639 297 SINARDET JACQUES MV1 193 NL 01:49:13 11,6 585
640 321 ROUFFIAC PASCAL MSE 292 NL 01:49:13 11,6 586
641 1157 ADAM MICHAEL MSE 293 NL 01:49:14 11,6 587
642 314 HENRAS STEPHANIE FSE 23 NL 01:49:22 11,6 55
643 755 LEMORT CHRISTOPHE MV1 194   01:49:22 11,6 588
644 756 LEMORT VIRGINIE FV1 26   01:49:22 11,6 56
645 1192 SOULIE PATRICK MV3 9 NL 01:49:23 11,6 589
646 1045 SYLVESTRE VINCENT MSE 294   01:49:26 11,6 590
647 242 LONGCHAL FRANCK MV1 195 JOGGING CLUB BORDEROUGE 01:49:29 11,6 591
648 879 CAUQUIL PIERRE MSE 295 NL 01:49:30 11,6 592
649 2889 ARTIGAS PHILIPPE MV2 81 NL 01:49:31 11,6 593
650 56 DABOUT ARNAUD MSE 296 NL 01:49:34 11,6 594
651 1014 GIRAUD ALBIN MV1 196 COURIR A SEILH 01:49:34 11,6 595
652 2880 MESSAOUI FARID MSE 297 NL 01:49:36 11,5 596
653 2890 BOBET BENOIT MSE 298 NL 01:49:37 11,5 597
654 402 ROUSTAN JULIEN MSE 299 NL 01:49:38 11,5 598
655 1113 DAMBRINE JEROME MV1 197 NL 01:49:48 11,5 599
656 1032 RONTES OLIVIER MV1 198   01:49:50 11,5 600
657 476 SEMAT CHRISTOPHE MV1 199 NL 01:49:51 11,5 601
658 2886 SARI DOMINIQUE MV1 200 NL 01:49:52 11,5 602
659 170 KURZ BRITTA FSE 24 EADS CASSIDIAN 01:49:54 11,5 57
660 72 BERTHELEMY NADEGE FSE 25   01:49:56 11,5 58
661 542 CARRERES REMY MSE 300 NL 01:50:01 11,5 603
662 313 SANA JEAN-FRANÇOIS MV1 201 NL 01:50:02 11,5 604
663 89 HUANG CHIH TE MSE 301 AIDC 01:50:03 11,5 605
664 882 GABARROT ERIC MV2 82   01:50:07 11,5 606
665 345 MAZEAU CHRISTOPHE MSE 302 NL 01:50:16 11,5 607
666 514 PENSO JÉRÔME MV1 202 NL 01:50:24 11,5 608
667 462 CAMY NATHALIE FV1 27 NL 01:50:27 11,5 59
668 2735 NERRIEC CELINDA FSE 26 PHILIPPIDE 01:50:28 11,5 60
669 977 PRECHAC VIRGINIE FSE 27 NL 01:50:29 11,5 61
670 2884 ESCUDIER JULIEN MSE 303 NL 01:50:29 11,5 609
671 724 CORDIER ARNAUD MSE 304 NL 01:50:30 11,5 610
672 707 CHABOSI JEAN-LUC MV2 83 NL 01:50:30 11,5 611
673 157 ENJOLRAS NATHALIE FV1 28 NL 01:50:30 11,5 62
674 280 SERRUS EMILIE FSE 28 NL 01:50:33 11,5 63
675 928 PUYGRENIER ALAIN MV1 203 NL 01:50:33 11,5 612
676 471 LEMARIE ANTHONY MSE 305 NL 01:50:34 11,4 613
677 233 BARENGER GREGOIRE MES 13 NL 01:50:44 11,4 614
678 102 RODRIGUEZ XAVIER MSE 306 NL 01:50:45 11,4 615
679 662 FONVIEILLE DOMINIQUE MSE 307   01:50:47 11,4 616
680 946 CASANOVA JEAN PAUL MV1 204 NL 01:50:52 11,4 617
681 63 GEZE LIONEL MSE 308 NL 01:50:53 11,4 618
682 255 FIQUET XAVIER MSE 309 NL 01:50:53 11,4 619
683 915 LAMY AMAURY MSE 310 NL 01:50:57 11,4 620
684 2745 BOISSIER CHRISTYNE MV2 84 NL 01:50:57 11,4 621
685 528 D'AURIAC BÉATRICE FV2 7 PORTET ATHLETIC CLUB 01:51:00 11,4 64
686 1155 SLAMNIA FARID MSE 311 NL 01:51:04 11,4 622
687 699 PALLAS PHILIPPE MV1 205 NL 01:51:07 11,4 623
688 754 LECCA PHILIPPE MV2 85   01:51:08 11,4 624
689 909 DUFFORT ALAIN MV1 206 NL 01:51:10 11,4 625
690 1034 JACQUOT DENIS MV1 207 NL 01:51:13 11,4 626
691 819 MOULIN PATRICK MV1 208 NL 01:51:13 11,4 627
692 1020 BELLOC ALAIN MV2 86   01:51:16 11,4 628
693 613 DETCHART PASCAL MV2 87 EPICURIEN DE L HERS 01:51:16 11,4 629
694 629 RUIZ-ORTIZ NICOLAS MSE 312 ASPF GAILLAC 01:51:22 11,4 630
695 2713 RIGAUD DUFOURCQ ANOUK FV1 29 COURIR FONSEGRIVES 01:51:25 11,4 65
696 467 SARLATTE BRUNO MSE 313   01:51:27 11,4 631
697 640 DURAND CHRISTELLE FV1 30 NL 01:51:29 11,4 66
698 989 RIVIERE JEAN-PIERRE MV1 209 PASS RUNNING 01:51:29 11,4 632
699 598 MUR SERGE MV2 88 NL 01:51:30 11,4 633
700 1160 DULHOSTE CORINNE FSE 29 NL 01:51:30 11,4 67
701 341 FAUP JEAN-FRANCOIS MV1 210 NL 01:51:35 11,3 634
702 762 MONTFRONT JEROME MV1 211   01:51:37 11,3 635
703 244 PLAZA CAMILLE FJU 1 NL 01:51:37 11,3 68
704 132 BARTHES LAURE FV1 31 PALAISEAU 01:51:39 11,3 69
705 243 PLAZA PHILIPPE MV2 89 NL 01:51:44 11,3 636
706 620 DUR CORINNE FV1 32 ACA 01:51:46 11,3 70
707 533 ESCARTIN IRENE FV1 33 AC PAMIERS 01:51:46 11,3 71
708 1092 DIDEROT BRIGITTE FV1 34 NL 01:51:48 11,3 72
709 394 GARABUAU BENOIT MSE 314 NL 01:51:51 11,3 637
710 840 BONNETTE PATRICE MV1 212 PORTET TRIATHLON 01:51:55 11,3 638
711 1006 MOLLE LAURENT MSE 315 NL 01:51:55 11,3 639
712 1070 FOUCART CHRISTOPHE MV1 213 NL 01:51:56 11,3 640
713 772 WILLIAMS RICHARD MV1 214 NL 01:51:56 11,3 641
714 303 MARTY FLORENT MSE 316 AIGUEFONDE 01:51:56 11,3 642
715 284 CHAPUIS BERTRAND MV2 90 NL 01:51:59 11,3 643
716 567 DELPRAT CHRISTEL FSE 30 NL 01:52:00 11,3 73
717 1191 GARCIA PHILIPPE MSE 317 NL 01:52:09 11,3 644
718 482 MARTINEAU BENOIT MSE 318 NL 01:52:09 11,3 645
719 265 BROUGHTON JAMES MV2 91 NL 01:52:11 11,3 646
720 391 BOUDET JOSIANE FV2 8 NL 01:52:12 11,3 74
721 781 FRARESSO DAVID MV1 215 NL 01:52:16 11,3 647
722 2895 OMETTO DAVID MSE 319 NL 01:52:16 11,3 648
723 1098 FONDEVIOLE NANCY FV2 9 NL 01:52:17 11,3 75
724 398 PARENTE NATHALIE FV1 35 NL 01:52:19 11,3 76
725 3168 BRELICE LOIC MSE 320 NL 01:52:21 11,3 649
726 753 KLEIN JULIEN MSE 321   01:52:22 11,3 650
727 1071 LAHOUSSINE LUDOVIC MV2 92 NL 01:52:22 11,3 651
728 970 PAYEN JEAN LOUIS MV2 93 NL 01:52:23 11,3 652
729 466 HAUTTEMENT YANNICK MSE 322   01:52:24 11,3 653
730 1190 GARCIA FABIEN MSE 323 NL 01:52:26 11,3 654
731 181 MOUTET MORGAN MSE 324 NL 01:52:27 11,3 655
732 735 BARUT SILVERE MSE 325   01:52:47 11,2 656
733 1000 STEPHAN GHISLAIN MV1 216 NL 01:52:47 11,2 657
734 617 CHARLIER LAURENT MV1 217 NL 01:52:47 11,2 658
735 2740 MORASSIN JEROME MSE 326 NL 01:52:50 11,2 659
736 2731 CHERON MAGALI FSE 31 NL 01:52:50 11,2 77
737 50 DUMOULIN FRANCK MSE 327 NL 01:52:51 11,2 660
738 1057 MASSOU JEAN-PIERRE MV3 10 BPBO ESCALQUENS 01:52:56 11,2 661
739 123 ROUX MCHEL MV2 94   01:52:56 11,2 662
740 1102 BOSC HERVE MV1 218 NL 01:52:59 11,2 663
741 133 ROCHAIX PHILIPPE MV2 95 NL 01:53:07 11,2 664
742 681 GRANIER FRANÇOIS MV2 96 NL 01:53:09 11,2 665
743 468 GLASSER FRANCOIS MV2 97   01:53:11 11,2 666
744 339 COOKE FABIEN MSE 328 NL 01:53:14 11,2 667
745 2712 GAUFFRIAN ADRIEN MSE 329 NL 01:53:15 11,2 668
746 338 BARTHET FRANCOIS MSE 330 NL 01:53:16 11,2 669
747 843 FLOTTES EMMANUEL MV1 219 NL 01:53:16 11,2 670
748 347 CHEVALLEY CAROL FV1 36 ass sportive perigord bessede 01:53:28 11,2 78
749 409 LAYANI BERNARD MV2 98 MACCABI TOULOUSE 01:53:33 11,1 671
750 1127 LARROQUE SANDRINE FV1 37 ATHLE 632 01:53:37 11,1 79
751 67 DASQUET JEAN-PIERRE MV1 220 NL 01:53:38 11,1 672
752 779 SENSEBY ALAIN MV2 99   01:53:44 11,1 673
753 2887 DESOURTHEAU PATRICE MV1 221 NL 01:53:45 11,1 674
754 454 GUESDON CYRIL MSE 331   01:53:47 11,1 675
755 610 THOMAS PIERRE MSE 332 NL 01:53:48 11,1 676
756 680 POZZA DENIS MV2 100 NL 01:53:49 11,1 677
757 558 LAFFONT MATTHIEU MSE 333 NL 01:53:51 11,1 678
758 1008 PEREZ JEROME MSE 334   01:53:52 11,1 679
759 687 BONNEFOUS HERVE MSE 335 NL 01:53:59 11,1 680
760 1056 DESHAYES ERIC MV1 222 BPBO ESCALQUENS 01:54:01 11,1 681
761 553 MIQUEL ÉRIC MSE 336 NL 01:54:02 11,1 682
762 240 JOLY JEAN LOUIS MV3 11 NL 01:54:04 11,1 683
763 3146 LE DAIN HERVE MV2 101 NL 01:54:08 11,1 684
764 327 MOITY PATRICK MV3 12 UNION PERPIGNAN ATHLÉTISME 66 01:54:08 11,1 685
765 1189 LAVIGNE PHILIPPE MV1 223 NL 01:54:10 11,1 686
766 2878 DELECLUSE MARTIN MSE 337 NL 01:54:10 11,1 687
767 825 MARSAIS BENJAMIN MSE 338 NL 01:54:15 11,1 688
768 1038 PHILBERT PIERRE MV3 13 NL 01:54:18 11,1 689
769 656 PAILHET ROSY FV1 38 NL 01:54:18 11,1 80
770 649 MATCZYK STEPHANE MSE 339   01:54:20 11,1 690
771 2823 CAYEUX HORTENSE FSE 32 NL 01:54:20 11,1 81
772 351 BENSAID SANDRA FV1 39 CA BALMA 01:54:24 11,1 82
773 2707 DUBOURG ARNAUD MSE 340 NL 01:54:27 11,1 691
774 593 CARCY CHRISTELLE FV1 40 NL 01:54:28 11,1 83
775 885 PERRIE LAURENT MV1 224   01:54:30 11,1 692
776 2714 BOUILLOT BABETH FV2 10 NL 01:54:30 11,1 84
777 99 BOULESTIER SYLVIE FSE 33 TOAC TRIATHLON 01:54:30 11,1 85
778 397 CALVINHO JOSE MV1 225 NL 01:54:31 11,1 693
779 286 CERVONI LAURENT MV2 102 NL 01:54:32 11,1 694
780 993 COUMES CHRISTIAN MV2 103 NL 01:54:35 11,0 695
781 793 NOIRFALISE CLAUDINE FSE 34 LIMAGNE ATHLETE ENDURANCE 01:54:38 11,0 86
782 849 GANOT BERNARD MV1 226 NL 01:54:38 11,0 696
783 851 PECHAMAT DIDIER MV1 227 NL 01:54:39 11,0 697
784 1162 MARTELL ALAIN MV2 104 NL 01:54:40 11,0 698
785 2866 VALENZA JACQUES MV1 228 NL 01:54:40 11,0 699
786 196 SABATIER ERIC MV1 229 NL 01:54:42 11,0 700
787 860 MARTINEZ GAEL MSE 341 NL 01:54:43 11,0 701
788 1047 BAILLOUD JOEL MV1 230   01:54:44 11,0 702
789 888 JACQUOLETTO GAETAN MSE 342 NL 01:54:47 11,0 703
790 480 DOL FABRICE MV1 231 NL 01:54:49 11,0 704
791 2882 LOUSTEAU OLIVIER MV1 232 NL 01:54:49 11,0 705
792 386 GAULLET JEAN CLAUDE MV2 105 NL 01:54:51 11,0 706
793 1066 CAUSSE ROLAND MV1 233 NL 01:54:52 11,0 707
794 2846 GAUCI THIERRY MV2 106 NL 01:54:54 11,0 708
795 942 DO REIS FREDERIQUE FV1 41 AC GIGOUZAC-ST/GERMAIN 01:54:58 11,0 87
796 2750 DOMINIQUE CAMILLE MSE 343 NL 01:55:06 11,0 709
797 1015 DE LENTAIGNE HUBERT MV1 234   01:55:08 11,0 710
798 804 BLACHON CYRIL MSE 344 NL 01:55:12 11,0 711
799 62 BORDJIHANE SAÏD MV1 235 NL 01:55:15 11,0 712
800 80 SOULIE ROMAIN MSE 345 NL 01:55:19 11,0 713
801 645 LEVET PATRICK MV3 14 DEP AUSSONNE 01:55:22 11,0 714
802 134 KERMARREC ARNAUD MSE 346 NL 01:55:23 11,0 715
803 1096 PECHO FRANCIS MV3 15 NL 01:55:28 11,0 716
804 148 DURAND ARNAUD MSE 347 NL 01:55:32 11,0 717
805 375 BELMONTE JEAN-PIERRE MV1 236   01:55:33 11,0 718
806 2828 BOUYER MICHEL MV3 16 NL 01:55:34 11,0 719
807 163 COUJOU JEAN CLAUDE MV2 107 NL 01:55:43 10,9 720
808 1164 SALVE FLORIAN MES 14 NL 01:55:44 10,9 721
809 320 ALCOCK FELIX MV1 237   01:55:46 10,9 722
810 778 PITTON DIDIER MV2 108   01:55:46 10,9 723
811 2716 FERREIRA MANUEL MV2 109 NL 01:55:47 10,9 724
812 547 FRAYSSE ERIC MV2 110   01:55:48 10,9 725
813 458 MAINIX CHRISTIAN MV4 1 NL 01:55:50 10,9 726
814 2875 VANBRACHEL ADRIEN MSE 348 NL 01:55:55 10,9 727
815 1049 BESSIERES ISABELLE FSE 35   01:55:57 10,9 88
816 74 QUEYRAUX SÉBASTIEN MSE 349 NL 01:55:59 10,9 728
817 968 RUPERT ROLAND MV3 17 NL 01:56:01 10,9 729
818 504 DUGGAN DAVID MV1 238 ELS RUNNING CLUB 01:56:01 10,9 730
819 274 JEAY FABRICE MV1 239 NL 01:56:02 10,9 731
820 112 CRISTINI FREDERIC MSE 350 NL 01:56:03 10,9 732
821 174 LAFON SERGE MV3 18 NL 01:56:07 10,9 733
822 2877 GONZE YANN MSE 351 NL 01:56:08 10,9 734
823 1197 CABAL BENJAMIN MSE 352   01:56:09 10,9 735
824 806 GUARDIA FABIEN MSE 353 NL 01:56:10 10,9 736
825 401 LAFON PATRICK MV1 240 NL 01:56:16 10,9 737
826 360 FOURCAULT PHILIPPE MV2 111 NL 01:56:17 10,9 738
827 1179 FERNADEZ NORBERT MV2 112 MAC ADAM COLOMIERS 01:56:18 10,9 739
828 230 ALBERT FLORENT MSE 354 NL 01:56:20 10,9 740
829 844 HERCYK BENJAMIN MSE 355 WAC 01:56:20 10,9 741
830 526 FERMI PATRICIA FV2 11   01:56:22 10,9 89
831 488 LOUBENS BERNARD MV1 241 NL 01:56:24 10,9 742
832 943 BARRABES GILLES MV2 113 NL 01:56:33 10,9 743
833 927 ORTEGA FABRICE MV1 242 TOBESPORT 01:56:35 10,9 744
834 936 DAVID STEPHAN MV1 243 NL 01:56:40 10,9 745
835 913 MERVIEL CLÉMENT MSE 356 NL 01:56:41 10,8 746
836 456 PEYRAL ALAIN MV2 114 USCA LESCURE 01:56:48 10,8 747
837 725 OLIVE NICOLAS MSE 357 POINT TROP N'EN FAUT 01:56:51 10,8 748
838 448 GICQUEL BEATRICE FV1 42 NL 01:56:52 10,8 90
839 168 AMIEL PHILIPPE MV1 244 NL 01:56:55 10,8 749
840 477 CANTRAINE FREDERIC MV1 245 NL 01:56:57 10,8 750
841 325 BRAZET NATHALIE FV1 43 NL 01:56:59 10,8 91
842 527 DUPUY DENIS MV2 115 PORTET ATHLETIC CLUB 01:56:59 10,8 751
843 2850 LONCLE PASCAL MV1 246 NL 01:57:06 10,8 752
844 953 POPINEL FRANCOIS MV2 116 LES ZINZINS DES COTEAUX 31 01:57:09 10,8 753
845 1074 PICHEREAU STEPHANE MV1 247 NL 01:57:15 10,8 754
846 736 CADENAT EMMANUEL MV1 248   01:57:18 10,8 755
847 1028 CAUQUIL JEAN FRANCOIS MV1 249 NL 01:57:20 10,8 756
848 670 MAZIERES VINCENT MSE 358 NL 01:57:21 10,8 757
849 392 MERLIER NICOLAS MSE 359 NL 01:57:21 10,8 758
850 306 JOSSE CHRISTELLE FSE 36 NL 01:57:24 10,8 92
851 537 SAUREL JEAN FRANCOIS MV1 250 NL 01:57:26 10,8 759
852 469 GOY JEROME MSE 360   01:57:26 10,8 760
853 1136 RAY ANTHONY MV2 117   01:57:28 10,8 761
854 603 MUENCHBACH JOHANNA FSE 37 NL 01:57:28 10,8 93
855 175 TRACA PIERRE MSE 361 NL 01:57:29 10,8 762
856 1185 FROIDEFONDS CHRISTIAN MV2 118 PAYS BRIVE ATHLETIQUE CLUB 01:57:33 10,8 763
857 560 LA ROSA MASSIMILIANO MSE 362 NL 01:57:38 10,8 764
858 786 POZO ALEXANDRE MV1 251 NL 01:57:39 10,8 765
859 239 STEFAN GÉRARD MV3 19 NL 01:57:43 10,8 766
860 777 PESCHES ROBERT MV2 119   01:57:48 10,7 767
861 2885 DELRIEU JEAN LOUIS MV2 120 NL 01:57:52 10,7 768
862 896 RIOU TRISTAN MSE 363 NL 01:57:54 10,7 769
863 224 BROQUERE FABIAN MSE 364 NL 01:57:54 10,7 770
864 651 COLY FABRICE MSE 365   01:57:56 10,7 771
865 1187 CAUSSE ROBERT MV4 2 NL 01:58:02 10,7 772
866 116 VIDAL GERARD MV2 121 NL 01:58:08 10,7 773
867 632 PEDROZA CLAUDE MV2 122 NL 01:58:11 10,7 774
868 2746 BIAIS BRUNNO MV2 123 NL 01:58:15 10,7 775
869 682 TOULAT OLIVIER MV1 252 L'AMPHORE 01:58:17 10,7 776
870 867 LAPEYRONNIE FRANCK MV1 253 NL 01:58:17 10,7 777
871 937 ESTIENNE ALBERT MV4 3 NL 01:58:18 10,7 778
872 964 CLARKE GUILLAUME MSE 366 NL 01:58:20 10,7 779
873 538 DUPRE FRANCIS MV2 124 NL 01:58:21 10,7 780
874 917 DAURIAT YOANN MSE 367 NL 01:58:27 10,7 781
875 1099 TONASSO FABIEN MSE 368 NL 01:58:33 10,7 782
876 1159 MARTRES SEBASTIEN MV1 254 CTTMI 01:58:39 10,7 783
877 273 GABAY PHILIPPE MV2 125 NL 01:58:39 10,7 784
878 130 GATTANO GRÉGORY MSE 369 JOG 12 DECAZEVILLE 01:58:40 10,7 785
879 129 GIRARD MARIELLE FSE 38 SPIRIDON AURILLAC 01:58:40 10,7 94
880 416 DREUX SÉBASTIEN MV1 255 NL 01:58:40 10,7 786
881 380 ROCA VERONIQUE FV1 44   01:58:44 10,7 95
882 2881 KLAIBER MAURICE MV2 126 NL 01:58:47 10,7 787
883 405 BRISSON ARMAND MSE 370 NL 01:58:48 10,7 788
884 66 MOEGLIN JULIA FSE 39 NL 01:58:50 10,7 96
885 984 SOULAN GABRIEL MSE 371 NL 01:58:55 10,6 789
886 850 BAUFRETON ROMAIN MSE 372 NL 01:59:05 10,6 790
887 180 BLANC SÉBASTIEN MSE 373 NL 01:59:07 10,6 791
888 572 CAPELLE RAPHAEL MSE 374 NL 01:59:09 10,6 792
889 1180 MIKLASZEWSKI SYLVAIN MV1 256 NL 01:59:09 10,6 793
890 429 DREUX WILFRIED MSE 375 NL 01:59:11 10,6 794
891 1005 SARRAZIN MARC MSE 376 NL 01:59:13 10,6 795
892 1016 SPRENGER NICOLAS MSE 377 NL 01:59:19 10,6 796
893 373 LYAZRHI FAOUZI MV2 127 NL 01:59:23 10,6 797
894 425 REYNE TIMOTHEE MSE 378 NL 01:59:29 10,6 798
895 715 ARPIZOU PASCAL MV1 257 NL 01:59:30 10,6 799
896 276 MORISSET DANIEL MV3 20 NL 01:59:33 10,6 800
897 372 PIERQUIN FRANCIS MSE 379 NL 01:59:33 10,6 801
898 1079 SUSIO ELIANE FV2 12 NL 01:59:36 10,6 97
899 326 REDOR DAVID MV1 258 NL 01:59:42 10,6 802
900 2721 JONIAUX LAURENT MV1 259 NL 01:59:48 10,6 803
901 1083 CHIVALLIER RENE MV2 128 NL 01:59:49 10,6 804
902 1064 CANU RICHARD MV1 260 NL 01:59:51 10,6 805
903 829 VIC XAVIER MSE 380 NL 01:59:52 10,6 806
904 771 VISENTIN MATHIEU MSE 381   01:59:54 10,6 807
905 136 EL HAMDI MOHAMED MV2 129 NL 02:00:00 10,5 808
906 1135 THERON CAROLINE FSE 40 NL 02:00:04 10,5 98
907 716 BONNAUD ANTOINE MSE 382 NL 02:00:11 10,5 809
908 510 CASTELLA DAVID MSE 383 NL 02:00:17 10,5 810
909 509 DANDINE ODILE FV2 13 AC PAMIERS 02:00:18 10,5 99
910 534 ESCARTIN ANGEL MV2 130 AC PAMIERS 02:00:18 10,5 811
911 275 CERISOLA ALAIN MV3 21   02:00:18 10,5 812
912 673 MERCADIER FREDERIC MSE 384   02:00:19 10,5 813
913 1082 D'ANDRIA JEAN -MARC MV1 261 NL 02:00:19 10,5 814
914 565 DERRAMOND LOIC MSE 385 RIEUMES COURSE À PIED 02:00:21 10,5 815
915 1198 CAPEL ANTHONY MV1 262   02:00:22 10,5 816
916 765 RICHTER JORG MV2 131   02:00:23 10,5 817
917 393 MARTY ROMAIN MSE 386 NL 02:00:26 10,5 818
918 822 DUBALLUT EMMANUEL MSE 387 NL 02:00:32 10,5 819
919 865 CRUAUD NICOLAS MV1 263 NL 02:00:32 10,5 820
920 734 BAJUL SYLVESTRE MV1 264   02:00:48 10,5 821
921 747 GALLAND COLETTE FV2 14 NL 02:00:54 10,5 100
922 227 BRONDEAU VERONIQUE FV1 45   02:00:56 10,5 101
923 2730 CAVERIVIERE VALERIE FV1 46 NL 02:00:57 10,5 102
924 1093 LECONTE PHILIPPE MV1 265 NL 02:00:57 10,5 822
925 475 RAVENEAU PATRICE MSE 388 TUC TRIATHLON 02:01:06 10,5 823
926 995 SENTENAC VLADIMIR MSE 389 MACADAM COLOMIERS 02:01:10 10,4 824
927 821 FRAU MANUEL MV3 22 NL 02:01:12 10,4 825
928 513 COUPEZ SONIA FV1 47 PORTET ATHLETIC CLUB 02:01:12 10,4 103
929 101 MUNIER FRÉDÉRIC MV1 266 PORTET ATHLETIC CLUB 02:01:14 10,4 826
930 318 TAVERNIER ANGELA FSE 41 NL 02:01:15 10,4 104
931 382 LOISEL CLAUDINE FV2 15 NL 02:01:26 10,4 105
932 582 LOUIBA SAID MV1 267 NL 02:01:29 10,4 827
933 992 LAVENAN SYLVAIN MSE 390 NL 02:01:30 10,4 828
934 519 LAVOCAT MICHEL MV3 23 LUMIERE ET VIE POUR MADAGASCAR 02:01:34 10,4 829
935 2832 RIZZI CELINE FV1 48 NL 02:01:34 10,4 106
936 1149 DEVAL PERRINE FSE 42 NL 02:01:37 10,4 107
937 232 DEVEAUX ERIC MV2 132 NL 02:01:40 10,4 830
938 1142 NOE ROMAIN MSE 391 NL 02:01:40 10,4 831
939 249 FILHOL ROMAIN MJU 2 NL 02:01:41 10,4 832
940 1013 PHILIPPE EMMANUEL MSE 392 NL 02:01:42 10,4 833
941 919 KAMIONKA LAURENT MV1 268 NL 02:01:43 10,4 834
942 3171 JAVAUX OCEANE FSE 43 NL 02:01:44 10,4 108
943 3172 CAHUZAC JEREMY MSE 393 NL 02:01:44 10,4 835
944 1095 LAVARENNE FRANCOIS MV3 24 NL 02:01:48 10,4 836
945 410 LAYANI BRIGITTE FV1 49 MACCABI TOULOUSE 02:01:49 10,4 109
946 1143 LECOSSIER MARIE-LEONE FV1 50 NL 02:02:00 10,4 110
947 1148 GHERARDI FLORIAN MV1 269 NL 02:02:01 10,4 837
948 607 BOULAGNON ALAIN MV2 133 NL 02:02:02 10,4 838
949 983 GUERRY JEAN-PIERRE MV1 270 NL 02:02:02 10,4 839
950 193 FUXEN FRANÇOISE FSE 44 NL 02:02:08 10,4 111
951 782 BERTAULT DAMIEN MV2 134 NL 02:02:08 10,4 840
952 761 MEIFORTH SONKE MV1 271   02:02:09 10,4 841
953 183 GHEBRIOUT MELIKA FV1 51 PEMP 02:02:18 10,4 112
954 576 QUENTEL JONATHAN MSE 394 NL 02:02:22 10,3 842
955 114 AMADIO MARIE-PIERRE FSE 45 NL 02:02:23 10,3 113
956 1097 MONTAGNE MARIE LAURE FSE 46 NL 02:02:23 10,3 114
957 1004 BRUNEL LAURENT MV1 272 NL 02:02:27 10,3 843
958 1184 PHILIPPE CEDRIC MSE 395 NL 02:02:28 10,3 844
959 246 MAUREL-BARESSE MYRIAM FSE 47 NL 02:02:32 10,3 115
960 254 DEVAUX PIERRE MV2 135 NL 02:02:35 10,3 845
961 1088 ESPI PHILIPPE MV2 136 NL 02:02:35 10,3 846
962 571 RUGOLO FRANCESCO MSE 396 NL 02:02:41 10,3 847
963 2854 ALBERT JEAN PIERRE MV2 137 NL 02:02:44 10,3 848
964 653 NAJAR JEAN CLAUDE MV2 138 CTTMI 02:02:44 10,3 849
965 641 CHANCHE SANDRINE FSE 48 CTTMI 02:02:45 10,3 116
966 1094 RESSEGIER SERGE MV2 139 NL 02:02:51 10,3 850
967 1026 THIEBAUGEORGES OLIVIER MV1 273   02:02:54 10,3 851
968 1183 OLVERA ANTHONY MSE 397 NL 02:03:06 10,3 852
969 98 RAOUL XAVIER MSE 398 TOAC TRIATHLON 02:03:09 10,3 853
970 626 GARCIA PHILIPPE MV1 274 ASPF GAILLAC 02:03:10 10,3 854
971 364 LARUE JEAN NOEL MV1 275 NL 02:03:11 10,3 855
972 2702 BOURJAC JEAN PIERRE MV2 140 NL 02:03:19 10,3 856
973 1100 RAIGNER WILFRID MV1 276 NL 02:03:24 10,3 857
974 589 TERRAT EMMANUELLE FSE 49 NL 02:03:31 10,2 117
975 2826 DURAND SEBASTIEN MV1 277 CAP TISSEO 02:03:32 10,2 858
976 2723 CANDEL SYLVIE FV2 16 NL 02:03:39 10,2 118
977 186 CALLARI CECILE FSE 50 NL 02:03:45 10,2 119
978 515 HACOT PATRICK MV2 141 NL 02:03:50 10,2 859
979 2718 BALLESTER S?BASTIEN MSE 399 NL 02:03:51 10,2 860
980 1076 GARCIA DAVID MV1 278 NL 02:03:51 10,2 861
981 1078 BEGUE PIERRE MSE 400 NL 02:03:52 10,2 862
982 1166 AYADI KHEMAIES MSE 401 NL 02:04:13 10,2 863
983 442 BALLESTER CATHERINE FV2 17 MACADAM 02:04:19 10,2 120
984 1027 PERINEAU MARC MV2 142   02:04:23 10,2 864
985 3142 ONNO BERNARD MV2 143 NL 02:04:24 10,2 865
986 674 BERNARD JÉRÉMY MSE 402 NL 02:04:28 10,2 866
987 568 MACHETO DAVID MSE 403 NL 02:04:37 10,2 867
988 2834 BRUNET NICOLAS MSE 404 NL 02:04:38 10,2 868
989 2724 MECHEKOUR CHERIF MSE 405 NL 02:04:47 10,1 869
990 722 TENGARRINHA MANUEL-GERALDO MV2 144 BSC ATHLE 02:04:49 10,1 870
991 1054 DOSSARD 1054 MSE 406 NL 02:04:49 10,1 871
992 2719 JOUSSEAUME THIERRY MV2 145 NL 02:04:52 10,1 872
993 1007 CAZENEUVE HENRI MV1 279 NL 02:04:55 10,1 873
994 652 CAZIAN REMY MSE 407   02:04:57 10,1 874
995 229 GATTANO ALAIN MV3 25 JOG 12 DECAZEVILLE 02:04:58 10,1 875
996 1186 BOUTIE PHILIPPE MV2 146 NL 02:05:06 10,1 876
997 1134 BERNIARD FABRICE MV1 280 NL 02:05:07 10,1 877
998 81 PUJOS DANIEL MSE 408 NL 02:05:10 10,1 878
999 637 BOUHOULOU BEATRICE FV1 52 CPL PRIMAUBE 02:05:11 10,1 121
1000 847 SIBADE MONIQUE FV2 18 MURET TRI 02:05:20 10,1 122
1001 807 VIGNERON JEAN MICHEL MSE 409 NL 02:05:22 10,1 879
1002 491 PIGATTO LAURENT MV1 281 NL 02:05:29 10,1 880
1003 1172 CALVET LYLI FV2 19 NL 02:05:31 10,1 123
1004 2733 FIOROTTO JACQUELINE FV1 53 TC CARCASSONNE 02:05:34 10,1 124
1005 769 STRACHAN LOUISE FV1 54   02:05:42 10,1 125
1006 206 FROMENTIN BRIGITTE FV2 20 ACA 02:05:43 10,1 126
1007 1104 DUHIN XAVIER MV2 147 MACADAM 02:05:46 10,1 881
1008 357 CURAUDEAU ANNE CELINE FSE 51 CAHORS ATHLETISME 02:05:59 10,0 127
1009 204 NILSSON AMINATA FV1 55 NL 02:06:00 10,0 128
1010 361 CLAVAUD JEAN LOUIS MV1 282 NL 02:06:01 10,0 882
1011 319 GIRAUDON CAROLINE FSE 52 NL 02:06:03 10,0 129
1012 369 DESBARATS MURIELLE FSE 53 MOTOROLA COURSE A PIED 02:06:03 10,0 130
1013 554 KLENIN ALEXEI MSE 410 NL 02:06:04 10,0 883
1014 2998 BITOUN ERIC MV1 283 NL 02:06:04 10,0 884
1015 690 BITOUN ERIC MV1 284 NL 02:06:05 10,0 885
1016 489 BRIAN CHRISTINE FV1 56 MONTAUBAN ATHLETISME 02:06:18 10,0 131
1017 963 GIRARD JASMINE FSE 54 NL 02:06:19 10,0 132
1018 671 HIRIART MARINA FSE 55 NL 02:06:21 10,0 133
1019 109 VABENTHIRAN SINNAMANY MV1 285 NL 02:06:25 10,0 886
1020 868 BLAISE FRANCK MV1 286 NL 02:06:34 10,0 887
1021 1069 DUVERGER DIDIER MV1 287 NL 02:06:36 10,0 888
1022 106 DOMALLAIN RAPHAEL MSE 411 NL 02:06:36 10,0 889
1023 812 BOURGEAT VIVIANE FV1 57 NL 02:06:45 10,0 134
1024 982 LEBLANC CAROLE FV1 58 CA BALMA 02:06:50 10,0 135
1025 71 CAMPI RODOLPHE MSE 412 NL 02:06:55 10,0 890
1026 625 NAVARRO MARIE PIERRE FV1 59 NL 02:07:00 10,0 136
1027 624 NAVARRO YANN MV1 288 ASPF GAILLAC 02:07:01 10,0 891
1028 609 ARMAND ERIC MV2 148 NL 02:07:06 10,0 892
1029 710 HURAND ANTOINE MV3 26   02:07:15 9,9 893
1030 172 DURIF NICOLAS MJU 3 NL 02:07:20 9,9 894
1031 728 DEVAUX PHILIPPE MV2 149   02:07:23 9,9 895
1032 813 TAVERA PIERRE MV3 27 NL 02:07:26 9,9 896
1033 974 BARDIN BRUNO MV2 150 NL 02:07:30 9,9 897
1034 987 JUAN PASCALE FV1 60 NL 02:07:34 9,9 137
1035 539 BAY COUTAND MARIE FSE 56 NL 02:07:37 9,9 138
1036 878 COQUIN CHRISTOPHE MSE 413 NL 02:07:40 9,9 898
1037 76 MAGNIONT CAMILLE FSE 57 NL 02:07:40 9,9 139
1038 1138 GAL EMILIE FSE 58 NL 02:07:41 9,9 140
1039 182 MERLAUD DAVID MV1 289 PEMP 02:07:43 9,9 899
1040 2747 PLEUX PHILIPPE MV2 151 NL 02:07:44 9,9 900
1041 365 ARJONA SYLVIE FV2 21 NL 02:07:51 9,9 141
1042 2867 DOSSARD 2867 MSE 414 NL 02:07:53 9,9 901
1043 948 CAMBOULIVES THIERRY MV1 290 NL 02:07:58 9,9 902
1044 348 GAILHARD BERNARD MV2 152 NL 02:07:59 9,9 903
1045 370 LAYE MARIE PIERRE FV1 61 CPL PRIMAUBE 02:08:01 9,9 142
1046 343 AZARD DAVID MSE 415 NL 02:08:06 9,9 904
1047 548 CLOAREC ALAIN MV2 153   02:08:16 9,9 905
1048 1199 GUILBERT CHRISTOPHE MV1 291 NL 02:08:28 9,9 906
1049 962 HENNEBOIS SERGE MV2 154 NL 02:08:37 9,8 907
1050 110 MILLET CLEMENT MSE 416 NL 02:08:37 9,8 908
1051 68 MILLET CHRISTINE FV2 22 NL 02:08:39 9,8 143
1052 291 MARIONVALLE MYLÈNE FES 1 NL 02:08:50 9,8 144
1053 2706 EVARISTO PAUL MSE 417 RETINA 02:08:55 9,8 909
1054 199 COMMARD SÉBASTIEN MSE 418 NL 02:08:56 9,8 910
1055 856 BARDINA GUILLAUME MSE 419 NL 02:08:58 9,8 911
1056 877 YORDANOV KRASIMIR MSE 420 NL 02:09:07 9,8 912
1057 1178 LACAZE PATRICK MV1 292 NL 02:09:26 9,8 913
1058 167 BEAULIEU MICHEL MV2 155 NL 02:09:27 9,8 914
1059 363 MOULIN JEAN CLAUDE MV3 28 USCA LESCURE 02:09:28 9,8 915
1060 495 BERGER ROLAND MV3 29 NL 02:09:28 9,8 916
1061 1075 MAUSSAC JEAN-LOUIS MV1 293 LES ZINZINS DES COTEAUX 31 02:09:29 9,8 917
1062 2873 RASCALOU LAURENT MV1 294   02:09:32 9,8 918
1063 2870 DESROUSSEAUX OLIVIER MV1 295 NL 02:09:32 9,8 919
1064 557 TOITOT BLANDINE FV1 62 NL 02:09:46 9,8 145
1065 573 LOZE PHILIPPE MV1 296 NL 02:09:47 9,8 920
1066 385 ZANIN ANITA FV2 23 NL 02:09:52 9,7 146
1067 501 BABUT CORALINE FSE 59 NL 02:10:09 9,7 147
1068 211 BRULE-PICHON VERONIQUE FV2 24 COURIR A SEILH 02:10:11 9,7 148
1069 721 CHONG CATHERINE FV1 63 BSC ATHLE 02:10:11 9,7 149
1070 596 BAQUÉ LAURE FSE 60 POMPIERS COLOMIERS 02:10:12 9,7 150
1071 332 BERTRON ALEXANDRA FSE 61 NL 02:10:24 9,7 151
1072 2825 TRANIER JULIEN M? 1 NL 02:10:34 9,7 921
1073 305 DE AMORIN PASCALE FSE 62 ACM RUNNING CLUB 02:10:38 9,7 152
1074 1195 DEBRIE SYLVIE FV2 25 ES BLANQUEFORT 02:10:46 9,7 153
1075 906 CAPDEPONT MONIQUE FV3 2   02:10:55 9,7 154
1076 890 MALE MARIE ANDREE FV3 3 NL 02:10:57 9,7 155
1077 889 VIEU REGINE FV1 64 NL 02:10:57 9,7 156
1078 316 GALITA JEAN MARIE MV1 297 NL 02:11:06 9,7 922
1079 1107 MAURY PHILIPPE MSE 421 NL 02:11:08 9,7 923
1080 899 SIROT MICHEL MV3 30 AC GIGOUZAC-ST/GERMAIN 02:11:08 9,7 924
1081 1110 LECONTE VINCENT MV2 156 NL 02:11:22 9,6 925
1082 1114 SOMAZZI SILJE FSE 63 NL 02:11:29 9,6 157
1083 137 GROUSILLIAT ETIENNE MSE 422 FIGEAC AC 02:11:31 9,6 926
1084 1161 GARCIA GUYLAINE FV1 65 NL 02:11:40 9,6 158
1085 435 DE SOUSA CATHY FV1 66 PERIGORD BESSEDE 02:11:42 9,6 159
1086 207 THOMAS FRANK MV1 298 NL 02:11:51 9,6 927
1087 612 LAINE JOELLE FV1 67 NL 02:12:06 9,6 160
1088 666 GROUILLET PATRICK MV1 299 NL 02:12:11 9,6 928
1089 2894 CAUSSE CORINNE FSE 64 SO MILLAU 02:12:23 9,6 161
1090 198 DESTRAC SYLVAIN MV2 157 NL 02:12:31 9,6 929
1091 907 WOJCIESZONAK MARIE THERESE FV2 26   02:12:33 9,6 162
1092 855 SINIGAGLIA ALAIN MV2 158 NL 02:12:36 9,5 930
1093 156 VALRIVIERE DAMIEN MSE 423 TOULOUSE TRI 02:13:00 9,5 931
1094 918 MANIECA LUCILE FSE 65 NL 02:13:10 9,5 163
1095 2728 LA ROSA VITO MV1 300 NL 02:13:16 9,5 932
1096 1011 SINISCALLO PHILIPPE MV1 301 BSC ATHLE 02:13:21 9,5 933
1097 1123 ECHE CHRISTINE FV2 27 NL 02:13:23 9,5 164
1098 683 BASTIN ETIENNE MV3 31 NL 02:13:24 9,5 934
1099 406 VRIGNON CHRISTOPHE MV2 159 NL 02:13:34 9,5 935
1100 407 VRIGNON MATTHIEU MSE 424 NL 02:13:34 9,5 936
1101 910 TONETTO VALERIE FSE 66 NL 02:13:36 9,5 165
1102 2893 TERRANERE PIERRE MV2 160 NL 02:13:43 9,5 937
1103 1194 LONJOU MARIE PIERRE FV1 68 NL 02:13:44 9,5 166
1104 814 TOUVENOT DANIEL MSE 425 NL 02:13:46 9,5 938
1105 931 PLUME EDDY MV1 302 NL 02:14:03 9,4 939
1106 961 THAON ALAIN MV3 32 NL 02:14:04 9,4 940
1107 419 HARD LAURE FV1 69 NL 02:14:10 9,4 167
1108 954 ELISSALDE CATHERINE FV1 70 NL 02:14:12 9,4 168
1109 795 FONTAGNOL HERVÉ MV1 303 NL 02:14:12 9,4 941
1110 422 RICARD LAURENT MSE 426 NL 02:14:39 9,4 942
1111 396 TERRISSE MAGALI FV1 71 NL 02:14:45 9,4 169
1112 374 PIRAS JEAN-CLAUDE MV1 304 NL 02:14:52 9,4 943
1113 142 BARBASTE YANNICK MSE 427 TOAC TRIATHLON 02:15:15 9,4 944
1114 340 DESCHAMPS DOMINIQUE MV2 161   02:15:25 9,3 945
1115 457 VIOLLET ALAIN MV1 305 USCA LESCURE 02:15:29 9,3 946
1116 437 BONVIE ALAIN MV2 162 NL 02:15:37 9,3 947
1117 646 LOPEZ ALEXANDRA FSE 67 NL 02:15:57 9,3 170
1118 1024 BOSSU JEAN PHILIPPE MSE 428 NL 02:16:02 9,3 948
1119 323 PEYROT SYLVIE FV1 72 NL 02:16:02 9,3 171
1120 191 PARISSE JACQUES MV3 33 IRRÉDUCTIBLES BIPÈDES CAZERES 02:16:23 9,3 949
1121 1072 BARRIAC CLAUDE MV2 163 NL 02:16:46 9,3 950
1122 1033 OGOR GAELLE FV1 73   02:16:49 9,3 172
1123 1031 LIMOZIN CATHERINE FSE 68   02:16:49 9,3 173
1124 832 POUILLOUX BENJAMIN MV1 306 NL 02:16:56 9,2 951
1125 967 CAPDEVILA JEAN PAUL MV4 4 COURIR FONSEGRIVES 02:17:00 9,2 952
1126 803 GAUTIER AMÉLIE FSE 69 NL 02:17:03 9,2 174
1127 100 MACAUD DAMIEN MSE 429 NL 02:17:07 9,2 953
1128 119 RAUZI JACQUES MV2 164   02:17:29 9,2 954
1129 930 MENDOUZE ELIANE FV1 74 NL 02:17:38 9,2 175
1130 579 GALLET CLAUDINE FV2 28 NL 02:17:54 9,2 176
1131 574 PICAULT JEAN MV2 165 NL 02:17:54 9,2 955
1132 161 ZARATE DANIEL MSE 430 NL 02:18:27 9,1 956
1133 841 AUDEBERT LAURENT MSE 431 NL 02:19:29 9,1 957
1134 842 AUDEBERT CARINE FSE 70 NL 02:19:29 9,1 177
1135 324 JOURDAIN NATHALIE FV1 75 NL 02:19:57 9,0 178
1136 359 BASTIER BEATRICE FV1 76 NL 02:19:58 9,0 179
1137 78 GUTIERREZ VIRGINIE FSE 71 NL 02:20:23 9,0 180
1138 79 POCARD ELODIE FSE 72 NL 02:20:23 9,0 181
1139 358 PEREZ FLORENCE FV1 77 NL 02:20:24 9,0 182
1140 2829 LANDES PHILIPPE MV1 307 NL 02:20:37 9,0 958
1141 176 WATRELOT JEAN MARC MV2 166 NL 02:21:16 9,0 959
1142 2836 MALET JACQUES MV3 34 NL 02:21:24 9,0 960
1143 2835 GIRAUD VALERIE FSE 73 NL 02:21:25 9,0 183
1144 153 ROBERT RAPHAËL MV1 308 NL 02:21:42 8,9 961
1145 164 VALETTE LILIAN MV1 309 NL 02:21:43 8,9 962
1146 1037 VACCHINA AUGUSTE MV4 5 NL 02:22:06 8,9 963
1147 2711 CORBION PIERRE MV1 310 ASTARAC FOND CLUB 02:22:21 8,9 964
1148 212 MIENS-ALLEMAND SANDRINE FV1 78 NL 02:22:50 8,9 184
1149 866 FERNANDEZ PHILIPPE MV1 311 NL 02:23:03 8,8 965
1150 1200 HOSPITALIER CLOCHARD CEDRIC MSE 432   02:23:12 8,8 966
1151 839 HUBAULT FANNY FSE 74 NL 02:25:12 8,7 185
1152 2996 DOSSARD 2996 MSE 433 NL 02:25:12 8,7 967
1153 1146 FERRY LUC MSE 434 NL 02:26:06 8,7 968
1154 2743 BERTANER CHRISINE FV1 79 NL 02:26:35 8,6 186
1155 2705 CAYROUSE CYRIL MSE 435 NL 02:26:52 8,6 969
1156 1081 BORCA CHANTAL FV2 29 NL 02:27:48 8,6 187
1157 1080 BORCA FRANCK MV2 167 NL 02:29:27 8,5 970
1158 165 LESPINASSE ERIC MV1 312 NL 02:30:18 8,4 971
1159 160 PALACIN/GERVAIS SYLVIE FV2 30 NL 02:30:20 8,4 188
1160 566 LARRIEU ALINE FSE 75 NL 02:30:20 8,4 189
1161 776 BIOSCA MARIE LAURE FV1 80   02:30:24 8,4 190
1162 221 LABADIE STEPHANIE FSE 76 NL 02:30:58 8,4 191
1163 655 LOUISE PATRICK MV2 168 NL 02:31:16 8,4 972
1164 139 LEFRERE BEATRICE FV1 81 NL 02:32:23 8,3 192
1165 775 BIOSCA JOSE MV3 35   02:34:55 8,2 973
1166 459 CAMMAS PASCAL MV3 36 NL 02:36:07 8,1 974
1167 1012 MICHEL THIERRY MJU 4 NL 02:38:31 8,0 975
1168 82 BERNARDINIS XAVIER MV1 313 NL 02:46:24 7,6 976
1169 1105 RIGAL FRANCIS MV2 169 NL 02:47:15 7,6 977
1170 384 IRIGOYEN SANDRINE FV1 82 COURIR A SEILH 02:48:53 7,5 193
1171 2891 LE FOLL HENRI MV1 314 NL 02:50:48 7,4 978